Observation data for Bootleg on 12/13/2019      Previous  Date       Current Mesonet Observations  Soil Data  Daily Summary Page  Observations in Plain Language
KBO1 130600Z 31007KT M01/M05 A3001 RMK A01 T10111051  RH  074%=      5-min Rain = 0
KBO1 130601Z 31008KT M01/M05 A3001 RMK A01 T10121051  RH  075%=      5-min Rain = 0
KBO1 130602Z 30008KT M01/M05 A3001 RMK A01 T10121051  RH  075%=      5-min Rain = 0
KBO1 130603Z 29009KT M01/M05 A3001 RMK A01 T10121050  RH  075%=      5-min Rain = 0
KBO1 130604Z 29009KT M01/M05 A3001 RMK A01 T10131050  RH  076%=      5-min Rain = 0
KBO1 130605Z 29009KT M01/M05 A3001 RMK A01 T10131050  RH  076%=      5-min Rain = 0
KBO1 130606Z 28009KT M01/M05 A3001 RMK A01 T10131050  RH  076%=      5-min Rain = 0
KBO1 130607Z 29009KT M01/M05 A3001 RMK A01 T10131050  RH  076%=      5-min Rain = 0
KBO1 130608Z 29009KT M01/M05 A3001 RMK A01 T10131049  RH  076%=      5-min Rain = 0
KBO1 130609Z 29009KT M01/M05 A3001 RMK A01 T10121049  RH  076%=      5-min Rain = 0
KBO1 130610Z 29008KT M01/M05 A3001 RMK A01 T10111049  RH  075%=      5-min Rain = 0
KBO1 130611Z 29009KT M01/M05 A3001 RMK A01 T10101049  RH  075%=      5-min Rain = 0
KBO1 130612Z 28009KT M01/M05 A3001 RMK A01 T10101050  RH  074%=      5-min Rain = 0
KBO1 130613Z 28009KT M01/M05 A3001 RMK A01 T10091050  RH  074%=      5-min Rain = 0
KBO1 130614Z 28009KT M01/M05 A3001 RMK A01 T10101051  RH  074%=      5-min Rain = 0
KBO1 130615Z 28009KT M01/M05 A3001 RMK A01 T10111051  RH  074%=      5-min Rain = 0
KBO1 130616Z 28008KT M01/M05 A3001 RMK A01 T10111051  RH  074%=      5-min Rain = 0
KBO1 130617Z 28008KT M01/M05 A3001 RMK A01 T10121052  RH  074%=      5-min Rain = 0
KBO1 130618Z 28008KT M01/M05 A3001 RMK A01 T10111052  RH  074%=      5-min Rain = 0
KBO1 130619Z 28009KT M01/M05 A30 RMK A01 T10111052  RH  074%=      5-min Rain = 0
KBO1 130620Z 28009KT M01/M05 A30 RMK A01 T10111052  RH  074%=      5-min Rain = 0
KBO1 130621Z 28008KT M01/M05 A30 RMK A01 T10101052  RH  073%=      5-min Rain = 0
KBO1 130622Z 29008KT M01/M05 A30 RMK A01 T10091052  RH  073%=      5-min Rain = 0
KBO1 130623Z 29007KT M01/M05 A30 RMK A01 T10081052  RH  072%=      5-min Rain = 0
KBO1 130624Z 29007KT M01/M05 A30 RMK A01 T10081052  RH  072%=      5-min Rain = 0
KBO1 130625Z 29007KT M01/M05 A30 RMK A01 T10081052  RH  072%=      5-min Rain = 0
KBO1 130626Z 29007KT M01/M05 A3001 RMK A01 T10101053  RH  072%=      5-min Rain = 0
KBO1 130627Z 29008KT M01/M05 A3001 RMK A01 T10111053  RH  073%=      5-min Rain = 0
KBO1 130628Z 29008KT M01/M05 A3001 RMK A01 T10121053  RH  074%=      5-min Rain = 0
KBO1 130629Z 29009KT M01/M05 A3001 RMK A01 T10131052  RH  074%=      5-min Rain = 0
KBO1 130630Z 29009KT M01/M05 A3001 RMK A01 T10131052  RH  075%=      5-min Rain = 0
KBO1 130631Z 29009KT M01/M05 A30 RMK A01 T10141052  RH  075%=      5-min Rain = 0
KBO1 130632Z 29009KT M01/M05 A3001 RMK A01 T10141052  RH  076%=      5-min Rain = 0
KBO1 130633Z 29009KT M01/M05 A3001 RMK A01 T10141051  RH  076%=      5-min Rain = 0
KBO1 130634Z 30010KT M01/M05 A3001 RMK A01 T10141051  RH  076%=      5-min Rain = 0
KBO1 130635Z 30010KT M01/M05 A30 RMK A01 T10131050  RH  076%=      5-min Rain = 0
KBO1 130636Z 30011KT M01/M05 A3001 RMK A01 T10121049  RH  076%=      5-min Rain = 0
KBO1 130637Z 30011KT M01/M05 A3001 RMK A01 T10101049  RH  075%=      5-min Rain = 0
KBO1 130638Z 30011KT M01/M05 A3001 RMK A01 T10071047  RH  074%=      5-min Rain = 0
KBO1 130639Z 30011KT M00/M05 A3001 RMK A01 T10031045  RH  073%=      5-min Rain = 0
KBO1 130640Z 30011KT 00/04 A30 RMK A01 T00000-44  RH  072%=      5-min Rain = 0
KBO1 130641Z 30010KT 00/M04 A3001 RMK A01 T00031043  RH  071%=      5-min Rain = 0
KBO1 130642Z 31010KT 00/M04 A3001 RMK A01 T00031044  RH  071%=      5-min Rain = 0
KBO1 130643Z 31010KT 00/M04 A3001 RMK A01 T00031044  RH  070%=      5-min Rain = 0
KBO1 130644Z 31010KT 00/M04 A3001 RMK A01 T00031044  RH  070%=      5-min Rain = 0
KBO1 130645Z 30010KT 00/M04 A3001 RMK A01 T00031044  RH  071%=      5-min Rain = 0
KBO1 130646Z 30010KT 00/M04 A3001 RMK A01 T00031044  RH  071%=      5-min Rain = 0
KBO1 130647Z 30009KT 00/M04 A30 RMK A01 T00021044  RH  071%=      5-min Rain = 0
KBO1 130648Z 30009KT 00/M04 A30 RMK A01 T00011044  RH  071%=      5-min Rain = 0
KBO1 130649Z 30009KT 00/M04 A30 RMK A01 T00011044  RH  072%=      5-min Rain = 0
KBO1 130650Z 30009KT 00/04 A30 RMK A01 T00000-44  RH  072%=      5-min Rain = 0
KBO1 130651Z 30009KT 00/04 A30 RMK A01 T00-00-44  RH  072%=      5-min Rain = 0
KBO1 130652Z 30009KT M00/M04 A3001 RMK A01 T10011044  RH  073%=      5-min Rain = 0
KBO1 130653Z 30009KT M00/M04 A3001 RMK A01 T10021044  RH  073%=      5-min Rain = 0
KBO1 130654Z 30009KT M00/M05 A3001 RMK A01 T10041045  RH  074%=      5-min Rain = 0
KBO1 130655Z 30010KT M01/M05 A3001 RMK A01 T10051045  RH  074%=      5-min Rain = 0
KBO1 130656Z 30010KT M01/M05 A3001 RMK A01 T10061045  RH  075%=      5-min Rain = 0
KBO1 130657Z 30010KT M01/M05 A3001 RMK A01 T10071045  RH  075%=      5-min Rain = 0
KBO1 130658Z 30010KT M01/M05 A3001 RMK A01 T10081045  RH  076%=      5-min Rain = 0
KBO1 130659Z 30010KT M01/M05 A3001 RMK A01 T10081045  RH  076%=      5-min Rain = 0
KBO1 130700Z 30010KT M01/M04 A3001 RMK A01 T10081044  RH  076%=      5-min Rain = 0
KBO1 130701Z 30010KT M01/M04 A3001 RMK A01 T10061043  RH  076%=      5-min Rain = 0
KBO1 130702Z 30010KT M01/M04 A3001 RMK A01 T10051043  RH  076%=      5-min Rain = 0
KBO1 130703Z 30010KT M00/M04 A3001 RMK A01 T10031041  RH  075%=      5-min Rain = 0
KBO1 130704Z 30011KT 00/04 A3001 RMK A01 T00000-40  RH  074%=      5-min Rain = 0
KBO1 130705Z 29010KT 00/M04 A3001 RMK A01 T00031039  RH  073%=      5-min Rain = 0
KBO1 130706Z 29011KT 01/M04 A3001 RMK A01 T00051039  RH  073%=      5-min Rain = 0
KBO1 130707Z 29011KT 01/M04 A3001 RMK A01 T00071038  RH  072%=      5-min Rain = 0
KBO1 130708Z 29011KT 01/M04 A3001 RMK A01 T00081038  RH  071%=      5-min Rain = 0
KBO1 130709Z 29011KT 01/M04 A3001 RMK A01 T00101038  RH  070%=      5-min Rain = 0
KBO1 130710Z 29010KT 01/M04 A30 RMK A01 T00121038  RH  069%=      5-min Rain = 0
KBO1 130711Z 29010KT 01/M04 A30 RMK A01 T00141038  RH  069%=      5-min Rain = 0
KBO1 130712Z 29010KT 02/M04 A30 RMK A01 T00151037  RH  068%=      5-min Rain = 0
KBO1 130713Z 29009KT 02/M04 A30 RMK A01 T00161037  RH  068%=      5-min Rain = 0
KBO1 130714Z 29009KT 02/M04 A30 RMK A01 T00171037  RH  068%=      5-min Rain = 0
KBO1 130715Z 29009KT 02/M04 A30 RMK A01 T00171037  RH  067%=      5-min Rain = 0
KBO1 130716Z 29008KT 02/M04 A30 RMK A01 T00181037  RH  067%=      5-min Rain = 0
KBO1 130717Z 29008KT 02/M04 A30 RMK A01 T00171037  RH  067%=      5-min Rain = 0
KBO1 130718Z 30008KT 02/M04 A30 RMK A01 T00171037  RH  067%=      5-min Rain = 0
KBO1 130719Z 30008KT 02/M04 A30 RMK A01 T00161038  RH  068%=      5-min Rain = 0
KBO1 130720Z 30008KT 01/M04 A30 RMK A01 T00141038  RH  068%=      5-min Rain = 0
KBO1 130721Z 30008KT 01/M04 A30 RMK A01 T00131038  RH  069%=      5-min Rain = 0
KBO1 130722Z 29008KT 01/M04 A30 RMK A01 T00111039  RH  069%=      5-min Rain = 0
KBO1 130723Z 29008KT 01/M04 A2999 RMK A01 T00101039  RH  070%=      5-min Rain = 0
KBO1 130724Z 29007KT 01/M04 A2999 RMK A01 T00101039  RH  070%=      5-min Rain = 0
KBO1 130725Z 29008KT 01/M04 A2999 RMK A01 T00101040  RH  070%=      5-min Rain = 0
KBO1 130726Z 29007KT 01/M04 A2999 RMK A01 T00101040  RH  070%=      5-min Rain = 0
KBO1 130727Z 29008KT 01/M04 A2999 RMK A01 T00101040  RH  069%=      5-min Rain = 0
KBO1 130728Z 29009KT 01/M04 A2998 RMK A01 T00111039  RH  069%=      5-min Rain = 0
KBO1 130729Z 29009KT 01/M04 A2998 RMK A01 T00131039  RH  068%=      5-min Rain = 0
KBO1 130730Z 28010KT 02/M04 A2998 RMK A01 T00161038  RH  067%=      5-min Rain = 0
KBO1 130731Z 28010KT 02/M04 A2998 RMK A01 T00191038  RH  066%=      5-min Rain = 0
KBO1 130732Z 28010KT 02/M04 A2998 RMK A01 T00201038  RH  065%=      5-min Rain = 0
KBO1 130733Z 28010KT 02/M04 A2998 RMK A01 T00211039  RH  065%=      5-min Rain = 0
KBO1 130734Z 28010KT 02/M04 A2998 RMK A01 T00211039  RH  064%=      5-min Rain = 0
KBO1 130735Z 28010KT 02/M04 A2998 RMK A01 T00201040  RH  064%=      5-min Rain = 0
KBO1 130736Z 28011KT 02/M04 A2998 RMK A01 T00211038  RH  065%=      5-min Rain = 0
KBO1 130737Z 28012KT 03/M04 A2998 RMK A01 T00251037  RH  064%=      5-min Rain = 0
KBO1 130738Z 28012KT 03/M04 A2998 RMK A01 T00291037  RH  062%=      5-min Rain = 0
KBO1 130739Z 28011KT 03/M04 A2998 RMK A01 T00311037  RH  061%=      5-min Rain = 0
KBO1 130740Z 28012KT 03/M04 A2998 RMK A01 T00321037  RH  060%=      5-min Rain = 0
KBO1 130741Z 28012KT 03/M04 A2998 RMK A01 T00331038  RH  060%=      5-min Rain = 0
KBO1 130742Z 28011KT 03/M04 A2998 RMK A01 T00331038  RH  060%=      5-min Rain = 0
KBO1 130743Z 28012KT 04/M04 A2998 RMK A01 T00351037  RH  059%=      5-min Rain = 0
KBO1 130744Z 28012KT 04/M04 A2998 RMK A01 T00361037  RH  059%=      5-min Rain = 0
KBO1 130745Z 28011KT 04/M04 A2998 RMK A01 T00371038  RH  058%=      5-min Rain = 0
KBO1 130746Z 28012KT 04/M04 A2998 RMK A01 T00371038  RH  058%=      5-min Rain = 0
KBO1 130747Z 28012KT 04/M04 A2998 RMK A01 T00381038  RH  057%=      5-min Rain = 0
KBO1 130748Z 28012KT 04/M04 A2998 RMK A01 T00391038  RH  057%=      5-min Rain = 0
KBO1 130749Z 28012KT 04/M04 A2998 RMK A01 T00401038  RH  057%=      5-min Rain = 0
KBO1 130750Z 28012KT 04/M04 A2998 RMK A01 T00401039  RH  056%=      5-min Rain = 0
KBO1 130751Z 28012KT 04/M04 A2998 RMK A01 T00411039  RH  056%=      5-min Rain = 0
KBO1 130752Z 28012KT 04/M04 A2999 RMK A01 T00411039  RH  056%=      5-min Rain = 0
KBO1 130753Z 28013KT 04/M04 A2999 RMK A01 T00421039  RH  055%=      5-min Rain = 0
KBO1 130754Z 28012KT 04/M04 A2999 RMK A01 T00441040  RH  055%=      5-min Rain = 0
KBO1 130755Z 28013KT 05/M04 A2999 RMK A01 T00451040  RH  054%=      5-min Rain = 0
KBO1 130756Z 28013KT 05/M04 A2999 RMK A01 T00461041  RH  053%=      5-min Rain = 0
KBO1 130757Z 28012KT 05/M04 A2999 RMK A01 T00471041  RH  053%=      5-min Rain = 0
KBO1 130758Z 28012KT 05/M04 A2999 RMK A01 T00471042  RH  053%=      5-min Rain = 0
KBO1 130759Z 28012KT 05/M04 A2999 RMK A01 T00471042  RH  052%=      5-min Rain = 0
KBO1 130800Z 28012KT 05/M04 A2999 RMK A01 T00471042  RH  052%=      5-min Rain = 0
KBO1 130801Z 28011KT 05/M04 A2999 RMK A01 T00471042  RH  053%=      5-min Rain = 0
KBO1 130802Z 28011KT 05/M04 A2998 RMK A01 T00461042  RH  053%=      5-min Rain = 0
KBO1 130803Z 28011KT 05/M04 A2998 RMK A01 T00451043  RH  053%=      5-min Rain = 0
KBO1 130804Z 28011KT 05/M04 A2999 RMK A01 T00451042  RH  053%=      5-min Rain = 0
KBO1 130805Z 28011KT 04/M04 A2999 RMK A01 T00441043  RH  053%=      5-min Rain = 0
KBO1 130806Z 28011KT 04/M04 A2999 RMK A01 T00441043  RH  053%=      5-min Rain = 0
KBO1 130807Z 28011KT 04/M04 A2999 RMK A01 T00431043  RH  054%=      5-min Rain = 0
KBO1 130808Z 28012KT 04/M04 A2999 RMK A01 T00431042  RH  054%=      5-min Rain = 0
KBO1 130809Z 28012KT 04/M04 A2999 RMK A01 T00431043  RH  054%=      5-min Rain = 0
KBO1 130810Z 28012KT 04/M04 A2999 RMK A01 T00431043  RH  054%=      5-min Rain = 0
KBO1 130811Z 28012KT 04/M04 A2999 RMK A01 T00431043  RH  054%=      5-min Rain = 0
KBO1 130812Z 28012KT 04/M04 A2999 RMK A01 T00421043  RH  054%=      5-min Rain = 0
KBO1 130813Z 28012KT 04/M04 A2999 RMK A01 T00411043  RH  054%=      5-min Rain = 0
KBO1 130814Z 28012KT 04/M04 A2999 RMK A01 T00411043  RH  054%=      5-min Rain = 0
KBO1 130815Z 29012KT 04/M04 A30 RMK A01 T00401044  RH  054%=      5-min Rain = 0
KBO1 130816Z 29011KT 04/M04 A30 RMK A01 T00401044  RH  054%=      5-min Rain = 0
KBO1 130817Z 29011KT 04/M04 A30 RMK A01 T00391044  RH  055%=      5-min Rain = 0
KBO1 130818Z 29011KT 04/M04 A30 RMK A01 T00391044  RH  055%=      5-min Rain = 0
KBO1 130819Z 29010KT 04/M04 A30 RMK A01 T00381044  RH  055%=      5-min Rain = 0
KBO1 130820Z 28010KT 04/M04 A30 RMK A01 T00371044  RH  055%=      5-min Rain = 0
KBO1 130821Z 29009KT 04/M04 A30 RMK A01 T00371044  RH  055%=      5-min Rain = 0
KBO1 130822Z 29009KT 04/M04 A30 RMK A01 T00361044  RH  055%=      5-min Rain = 0
KBO1 130823Z 29009KT 04/M05 A30 RMK A01 T00351045  RH  056%=      5-min Rain = 0
KBO1 130824Z 29009KT 03/M05 A30 RMK A01 T00341045  RH  056%=      5-min Rain = 0
KBO1 130825Z 28009KT 03/M05 A30 RMK A01 T00341045  RH  056%=      5-min Rain = 0
KBO1 130826Z 28010KT 03/M05 A30 RMK A01 T00341045  RH  056%=      5-min Rain = 0
KBO1 130827Z 28010KT 04/M04 A30 RMK A01 T00351044  RH  056%=      5-min Rain = 0
KBO1 130828Z 28011KT 04/M04 A2999 RMK A01 T00351044  RH  056%=      5-min Rain = 0
KBO1 130829Z 28012KT 04/M04 A2999 RMK A01 T00361044  RH  056%=      5-min Rain = 0
KBO1 130830Z 28012KT 04/M04 A2999 RMK A01 T00381044  RH  055%=      5-min Rain = 0
KBO1 130831Z 28012KT 04/M04 A2999 RMK A01 T00391044  RH  055%=      5-min Rain = 0
KBO1 130832Z 28013KT 04/M04 A2999 RMK A01 T00401044  RH  054%=      5-min Rain = 0
KBO1 130833Z 28013KT 04/M04 A2999 RMK A01 T00401044  RH  054%=      5-min Rain = 0
KBO1 130834Z 28012KT 04/M05 A2999 RMK A01 T00411045  RH  054%=      5-min Rain = 0
KBO1 130835Z 28012KT 04/M05 A2999 RMK A01 T00411045  RH  054%=      5-min Rain = 0
KBO1 130836Z 28012KT 04/M05 A2999 RMK A01 T00401045  RH  054%=      5-min Rain = 0
KBO1 130837Z 28012KT 04/M05 A2999 RMK A01 T00381046  RH  054%=      5-min Rain = 0
KBO1 130838Z 28012KT 04/M05 A2999 RMK A01 T00371046  RH  055%=      5-min Rain = 0
KBO1 130839Z 28012KT 04/M05 A2999 RMK A01 T00361047  RH  055%=      5-min Rain = 0
KBO1 130840Z 28012KT 04/M05 A2999 RMK A01 T00351047  RH  055%=      5-min Rain = 0
KBO1 130841Z 28013KT 04/M05 A2999 RMK A01 T00351047  RH  055%=      5-min Rain = 0
KBO1 130842Z 28012KT 03/M05 A2999 RMK A01 T00341048  RH  055%=      5-min Rain = 0
KBO1 130843Z 28012KT 03/M05 A2999 RMK A01 T00341048  RH  055%=      5-min Rain = 0
KBO1 130844Z 28011KT 03/M05 A2999 RMK A01 T00341048  RH  055%=      5-min Rain = 0
KBO1 130845Z 28012KT 03/M05 A2999 RMK A01 T00341048  RH  055%=      5-min Rain = 0
KBO1 130846Z 28012KT 04/M05 A2999 RMK A01 T00351048  RH  055%=      5-min Rain = 0
KBO1 130847Z 28012KT 04/M05 A2999 RMK A01 T00351048  RH  055%=      5-min Rain = 0
KBO1 130848Z 28012KT 04/M05 A2999 RMK A01 T00361048  RH  054%=      5-min Rain = 0
KBO1 130849Z 28012KT 04/M05 A2999 RMK A01 T00371048  RH  054%=      5-min Rain = 0
KBO1 130850Z 28012KT 04/M05 A2999 RMK A01 T00371049  RH  054%=      5-min Rain = 0
KBO1 130851Z 28012KT 04/M05 A2999 RMK A01 T00381048  RH  053%=      5-min Rain = 0
KBO1 130852Z 28012KT 04/M05 A2999 RMK A01 T00381048  RH  053%=      5-min Rain = 0
KBO1 130853Z 28012KT 04/M05 A2999 RMK A01 T00391049  RH  053%=      5-min Rain = 0
KBO1 130854Z 28012KT 04/M05 A2999 RMK A01 T00401049  RH  052%=      5-min Rain = 0
KBO1 130855Z 29012KT 04/M05 A2999 RMK A01 T00411048  RH  052%=      5-min Rain = 0
KBO1 130856Z 29011KT 04/M05 A2999 RMK A01 T00421049  RH  052%=      5-min Rain = 0
KBO1 130857Z 29011KT 04/M05 A2999 RMK A01 T00431048  RH  051%=      5-min Rain = 0
KBO1 130858Z 29011KT 04/M05 A2999 RMK A01 T00431048  RH  051%=      5-min Rain = 0
KBO1 130859Z 30011KT 04/M05 A2999 RMK A01 T00441048  RH  051%=      5-min Rain = 0
KBO1 130900Z 30010KT 05/M05 A2999 RMK A01 T00451048  RH  051%=      5-min Rain = 0
KBO1 130901Z 30010KT 05/M05 A2999 RMK A01 T00451048  RH  051%=      5-min Rain = 0
KBO1 130902Z 30009KT 04/M05 A2999 RMK A01 T00431049  RH  051%=      5-min Rain = 0
KBO1 130903Z 29009KT 04/M05 A2999 RMK A01 T00431049  RH  051%=      5-min Rain = 0
KBO1 130904Z 29009KT 04/M05 A2999 RMK A01 T00411049  RH  052%=      5-min Rain = 0
KBO1 130905Z 30008KT 04/M05 A2999 RMK A01 T00391050  RH  052%=      5-min Rain = 0
KBO1 130906Z 29008KT 04/M05 A2999 RMK A01 T00371050  RH  053%=      5-min Rain = 0
KBO1 130907Z 29008KT 04/M05 A2999 RMK A01 T00351050  RH  054%=      5-min Rain = 0
KBO1 130908Z 29008KT 03/M05 A2999 RMK A01 T00331050  RH  054%=      5-min Rain = 0
KBO1 130909Z 29008KT 03/M05 A2999 RMK A01 T00321050  RH  055%=      5-min Rain = 0
KBO1 130910Z 29009KT 03/M05 A2999 RMK A01 T00311050  RH  055%=      5-min Rain = 0
KBO1 130911Z 29009KT 03/M05 A2999 RMK A01 T00291050  RH  056%=      5-min Rain = 0
KBO1 130912Z 29008KT 03/M05 A2999 RMK A01 T00281050  RH  056%=      5-min Rain = 0
KBO1 130913Z 29008KT 03/M05 A2999 RMK A01 T00271050  RH  057%=      5-min Rain = 0
KBO1 130914Z 29009KT 03/M05 A2999 RMK A01 T00261050  RH  057%=      5-min Rain = 0
KBO1 130915Z 28009KT 03/M05 A2999 RMK A01 T00251050  RH  058%=      5-min Rain = 0
KBO1 130916Z 28008KT 02/M05 A2999 RMK A01 T00241050  RH  058%=      5-min Rain = 0
KBO1 130917Z 28010KT 02/M05 A2999 RMK A01 T00231050  RH  059%=      5-min Rain = 0
KBO1 130918Z 28010KT 02/M05 A2999 RMK A01 T00221050  RH  059%=      5-min Rain = 0
KBO1 130919Z 28010KT 02/M05 A2999 RMK A01 T00211050  RH  059%=      5-min Rain = 0
KBO1 130920Z 28010KT 02/M05 A2999 RMK A01 T00211050  RH  059%=      5-min Rain = 0
KBO1 130921Z 27010KT 02/M05 A2999 RMK A01 T00211050  RH  059%=      5-min Rain = 0
KBO1 130922Z 27011KT 02/M05 A2999 RMK A01 T00211050  RH  059%=      5-min Rain = 0
KBO1 130923Z 26011KT 02/M05 A2999 RMK A01 T00221050  RH  059%=      5-min Rain = 0
KBO1 130924Z 27011KT 02/M05 A2999 RMK A01 T00211049  RH  060%=      5-min Rain = 0
KBO1 130925Z 27011KT 02/M05 A2999 RMK A01 T00201049  RH  060%=      5-min Rain = 0
KBO1 130926Z 27010KT 02/M05 A2999 RMK A01 T00201049  RH  060%=      5-min Rain = 0
KBO1 130927Z 27009KT 02/M05 A2999 RMK A01 T00211049  RH  060%=      5-min Rain = 0
KBO1 130928Z 27010KT 02/M05 A2999 RMK A01 T00211049  RH  060%=      5-min Rain = 0
KBO1 130929Z 27010KT 02/M05 A2999 RMK A01 T00211050  RH  059%=      5-min Rain = 0
KBO1 130930Z 28010KT 02/M05 A2999 RMK A01 T00231049  RH  059%=      5-min Rain = 0
KBO1 130931Z 28010KT 03/M05 A2999 RMK A01 T00251049  RH  058%=      5-min Rain = 0
KBO1 130932Z 28010KT 03/M05 A2999 RMK A01 T00261049  RH  058%=      5-min Rain = 0
KBO1 130933Z 27010KT 03/M05 A2999 RMK A01 T00271049  RH  057%=      5-min Rain = 0
KBO1 130934Z 27010KT 03/M05 A2999 RMK A01 T00281049  RH  057%=      5-min Rain = 0
KBO1 130935Z 27010KT 03/M05 A2999 RMK A01 T00281049  RH  057%=      5-min Rain = 0
KBO1 130936Z 27010KT 03/M05 A2998 RMK A01 T00271049  RH  057%=      5-min Rain = 0
KBO1 130937Z 27010KT 03/M05 A2998 RMK A01 T00281049  RH  057%=      5-min Rain = 0
KBO1 130938Z 27010KT 03/M05 A2998 RMK A01 T00281049  RH  057%=      5-min Rain = 0
KBO1 130939Z 28010KT 03/M05 A2998 RMK A01 T00291049  RH  057%=      5-min Rain = 0
KBO1 130940Z 28010KT 03/M05 A2998 RMK A01 T00301048  RH  056%=      5-min Rain = 0
KBO1 130941Z 27010KT 03/M05 A2998 RMK A01 T00311048  RH  056%=      5-min Rain = 0
KBO1 130942Z 28010KT 03/M05 A2998 RMK A01 T00321048  RH  056%=      5-min Rain = 0
KBO1 130943Z 27011KT 03/M05 A2998 RMK A01 T00321048  RH  056%=      5-min Rain = 0
KBO1 130944Z 27010KT 03/M05 A2998 RMK A01 T00321048  RH  055%=      5-min Rain = 0
KBO1 130945Z 27010KT 03/M05 A2998 RMK A01 T00331048  RH  055%=      5-min Rain = 0
KBO1 130946Z 27011KT 03/M05 A2998 RMK A01 T00331048  RH  056%=      5-min Rain = 0
KBO1 130947Z 27011KT 03/M05 A2998 RMK A01 T00321048  RH  056%=      5-min Rain = 0
KBO1 130948Z 28011KT 03/M05 A2998 RMK A01 T00331047  RH  056%=      5-min Rain = 0
KBO1 130949Z 27010KT 04/M05 A2998 RMK A01 T00381046  RH  054%=      5-min Rain = 0
KBO1 130950Z 27010KT 04/M05 A2998 RMK A01 T00391047  RH  053%=      5-min Rain = 0
KBO1 130951Z 27010KT 04/M05 A2998 RMK A01 T00381048  RH  053%=      5-min Rain = 0
KBO1 130952Z 26010KT 04/M05 A2998 RMK A01 T00361048  RH  054%=      5-min Rain = 0
KBO1 130953Z 26010KT 04/M05 A2998 RMK A01 T00351048  RH  055%=      5-min Rain = 0
KBO1 130954Z 26010KT 03/M05 A2998 RMK A01 T00331049  RH  055%=      5-min Rain = 0
KBO1 130955Z 27010KT 03/M05 A2998 RMK A01 T00311049  RH  056%=      5-min Rain = 0
KBO1 130956Z 27010KT 03/M05 A2998 RMK A01 T00301048  RH  056%=      5-min Rain = 0
KBO1 130957Z 26011KT 03/M05 A2998 RMK A01 T00301048  RH  057%=      5-min Rain = 0
KBO1 130958Z 26010KT 03/M05 A2998 RMK A01 T00291048  RH  057%=      5-min Rain = 0
KBO1 130959Z 26010KT 03/M05 A2998 RMK A01 T00291048  RH  057%=      5-min Rain = 0
KBO1 131000Z 26010KT 03/M05 A2998 RMK A01 T00281048  RH  057%=      5-min Rain = 0
KBO1 131001Z 26010KT 03/M05 A2998 RMK A01 T00281048  RH  057%=      5-min Rain = 0
KBO1 131002Z 26010KT 03/M05 A2998 RMK A01 T00271048  RH  058%=      5-min Rain = 0
KBO1 131003Z 26011KT 03/M05 A2998 RMK A01 T00271048  RH  058%=      5-min Rain = 0
KBO1 131004Z 26010KT 03/M05 A2998 RMK A01 T00271048  RH  058%=      5-min Rain = 0
KBO1 131005Z 26011KT 03/M05 A2998 RMK A01 T00271048  RH  058%=      5-min Rain = 0
KBO1 131006Z 26011KT 03/M05 A2998 RMK A01 T00271048  RH  058%=      5-min Rain = 0
KBO1 131007Z 25011KT 03/M05 A2998 RMK A01 T00271048  RH  058%=      5-min Rain = 0
KBO1 131008Z 25011KT 03/M05 A2998 RMK A01 T00271048  RH  058%=      5-min Rain = 0
KBO1 131009Z 25011KT 03/M05 A2998 RMK A01 T00271047  RH  058%=      5-min Rain = 0
KBO1 131010Z 25011KT 03/M05 A2998 RMK A01 T00271047  RH  058%=      5-min Rain = 0
KBO1 131011Z 25011KT 03/M05 A2998 RMK A01 T00271046  RH  059%=      5-min Rain = 0
KBO1 131012Z 25012KT 03/M05 A2998 RMK A01 T00271045  RH  059%=      5-min Rain = 0
KBO1 131013Z 25012KT 03/M05 A2998 RMK A01 T00271045  RH  059%=      5-min Rain = 0
KBO1 131014Z 25011KT 03/M04 A2998 RMK A01 T00271044  RH  060%=      5-min Rain = 0
KBO1 131015Z 25011KT 03/M04 A2998 RMK A01 T00271043  RH  060%=      5-min Rain = 0
KBO1 131016Z 25011KT 03/M04 A2998 RMK A01 T00281042  RH  060%=      5-min Rain = 0
KBO1 131017Z 25011KT 03/M04 A2998 RMK A01 T00281042  RH  060%=      5-min Rain = 0
KBO1 131018Z 25011KT 03/M04 A2998 RMK A01 T00281042  RH  060%=      5-min Rain = 0
KBO1 131019Z 25011KT 03/M04 A2998 RMK A01 T00291041  RH  060%=      5-min Rain = 0
KBO1 131020Z 26010KT 03/M04 A2998 RMK A01 T00291041  RH  060%=      5-min Rain = 0
KBO1 131021Z 26010KT 03/M04 A2998 RMK A01 T00301041  RH  060%=      5-min Rain = 0
KBO1 131022Z 26010KT 03/M04 A2998 RMK A01 T00311040  RH  059%=      5-min Rain = 0
KBO1 131023Z 25010KT 03/M04 A2998 RMK A01 T00311041  RH  059%=      5-min Rain = 0
KBO1 131024Z 25010KT 03/M04 A2998 RMK A01 T00311040  RH  059%=      5-min Rain = 0
KBO1 131025Z 25010KT 03/M04 A2998 RMK A01 T00311041  RH  059%=      5-min Rain = 0
KBO1 131026Z 25009KT 03/M04 A2998 RMK A01 T00311041  RH  059%=      5-min Rain = 0
KBO1 131027Z 25009KT 03/M04 A2998 RMK A01 T00311041  RH  059%=      5-min Rain = 0
KBO1 131028Z 25009KT 03/M04 A2998 RMK A01 T00311041  RH  059%=      5-min Rain = 0
KBO1 131029Z 25009KT 03/M04 A2998 RMK A01 T00301042  RH  059%=      5-min Rain = 0
KBO1 131030Z 25009KT 03/M04 A2998 RMK A01 T00301042  RH  059%=      5-min Rain = 0
KBO1 131031Z 26009KT 03/M04 A2998 RMK A01 T00291042  RH  060%=      5-min Rain = 0
KBO1 131032Z 26009KT 03/M04 A2998 RMK A01 T00291042  RH  060%=      5-min Rain = 0
KBO1 131033Z 26009KT 03/M04 A2998 RMK A01 T00281042  RH  060%=      5-min Rain = 0
KBO1 131034Z 26009KT 03/M04 A2998 RMK A01 T00281042  RH  060%=      5-min Rain = 0
KBO1 131035Z 26010KT 03/M04 A2998 RMK A01 T00281042  RH  060%=      5-min Rain = 0
KBO1 131036Z 26010KT 03/M04 A2998 RMK A01 T00281041  RH  060%=      5-min Rain = 0
KBO1 131037Z 26010KT 03/M04 A2998 RMK A01 T00291041  RH  060%=      5-min Rain = 0
KBO1 131038Z 26010KT 03/M04 A2998 RMK A01 T00301041  RH  060%=      5-min Rain = 0
KBO1 131039Z 26010KT 03/M04 A2998 RMK A01 T00311040  RH  059%=      5-min Rain = 0
KBO1 131040Z 26010KT 03/M04 A2998 RMK A01 T00311041  RH  059%=      5-min Rain = 0
KBO1 131041Z 26010KT 03/M04 A2998 RMK A01 T00321041  RH  059%=      5-min Rain = 0
KBO1 131042Z 26010KT 03/M04 A2998 RMK A01 T00321040  RH  059%=      5-min Rain = 0
KBO1 131043Z 26009KT 03/M04 A2998 RMK A01 T00321040  RH  059%=      5-min Rain = 0
KBO1 131044Z 27009KT 03/M04 A2998 RMK A01 T00321040  RH  059%=      5-min Rain = 0
KBO1 131045Z 27009KT 03/M04 A2998 RMK A01 T00331040  RH  059%=      5-min Rain = 0
KBO1 131046Z 27009KT 03/M04 A2998 RMK A01 T00331040  RH  059%=      5-min Rain = 0
KBO1 131047Z 27008KT 03/M04 A2998 RMK A01 T00331040  RH  059%=      5-min Rain = 0
KBO1 131048Z 27009KT 03/M04 A2998 RMK A01 T00321040  RH  059%=      5-min Rain = 0
KBO1 131049Z 27009KT 03/M04 A2998 RMK A01 T00321040  RH  059%=      5-min Rain = 0
KBO1 131050Z 27009KT 03/M04 A2998 RMK A01 T00331040  RH  059%=      5-min Rain = 0
KBO1 131051Z 28009KT 03/M04 A2998 RMK A01 T00341040  RH  059%=      5-min Rain = 0
KBO1 131052Z 28010KT 04/M04 A2998 RMK A01 T00351040  RH  058%=      5-min Rain = 0
KBO1 131053Z 28009KT 04/M04 A2998 RMK A01 T00371039  RH  057%=      5-min Rain = 0
KBO1 131054Z 28009KT 04/M04 A2998 RMK A01 T00381040  RH  057%=      5-min Rain = 0
KBO1 131055Z 28009KT 04/M04 A2998 RMK A01 T00381040  RH  057%=      5-min Rain = 0
KBO1 131056Z 28009KT 04/M04 A2998 RMK A01 T00391040  RH  056%=      5-min Rain = 0
KBO1 131057Z 28009KT 04/M04 A2998 RMK A01 T00391040  RH  056%=      5-min Rain = 0
KBO1 131058Z 28009KT 04/M04 A2998 RMK A01 T00381041  RH  057%=      5-min Rain = 0
KBO1 131059Z 28008KT 04/M04 A2998 RMK A01 T00361041  RH  057%=      5-min Rain = 0
KBO1 131100Z 28009KT 03/M04 A2998 RMK A01 T00341041  RH  058%=      5-min Rain = 0
KBO1 131101Z 28010KT 03/M04 A2998 RMK A01 T00321041  RH  059%=      5-min Rain = 0
KBO1 131102Z 28009KT 03/M04 A2998 RMK A01 T00311041  RH  059%=      5-min Rain = 0
KBO1 131103Z 28010KT 03/M04 A2998 RMK A01 T00301040  RH  060%=      5-min Rain = 0
KBO1 131104Z 28010KT 03/M04 A2998 RMK A01 T00291041  RH  060%=      5-min Rain = 0
KBO1 131105Z 28010KT 03/M04 A2998 RMK A01 T00291041  RH  060%=      5-min Rain = 0
KBO1 131106Z 28009KT 03/M04 A2998 RMK A01 T00291041  RH  060%=      5-min Rain = 0
KBO1 131107Z 28009KT 03/M04 A2998 RMK A01 T00301040  RH  060%=      5-min Rain = 0
KBO1 131108Z 28010KT 03/M04 A2998 RMK A01 T00301040  RH  060%=      5-min Rain = 0
KBO1 131109Z 28009KT 03/M04 A2998 RMK A01 T00291041  RH  060%=      5-min Rain = 0
KBO1 131110Z 28010KT 03/M04 A2998 RMK A01 T00301041  RH  060%=      5-min Rain = 0
KBO1 131111Z 28010KT 03/M04 A2998 RMK A01 T00311040  RH  060%=      5-min Rain = 0
KBO1 131112Z 29010KT 03/M04 A2998 RMK A01 T00301041  RH  060%=      5-min Rain = 0
KBO1 131113Z 29010KT 03/M04 A2998 RMK A01 T00301041  RH  060%=      5-min Rain = 0
KBO1 131114Z 29010KT 03/M04 A2998 RMK A01 T00321040  RH  059%=      5-min Rain = 0
KBO1 131115Z 29010KT 03/M04 A2998 RMK A01 T00331040  RH  059%=      5-min Rain = 0
KBO1 131116Z 29009KT 03/M04 A2998 RMK A01 T00341040  RH  058%=      5-min Rain = 0
KBO1 131117Z 29010KT 04/M04 A2998 RMK A01 T00351040  RH  058%=      5-min Rain = 0
KBO1 131118Z 29009KT 04/M04 A2998 RMK A01 T00351041  RH  058%=      5-min Rain = 0
KBO1 131119Z 29009KT 03/M04 A2998 RMK A01 T00341041  RH  058%=      5-min Rain = 0
KBO1 131120Z 29009KT 03/M04 A2998 RMK A01 T00331041  RH  058%=      5-min Rain = 0
KBO1 131121Z 29009KT 03/M04 A2998 RMK A01 T00311041  RH  059%=      5-min Rain = 0
KBO1 131122Z 29009KT 03/M04 A2998 RMK A01 T00301041  RH  059%=      5-min Rain = 0
KBO1 131123Z 29009KT 03/M04 A2998 RMK A01 T00301041  RH  060%=      5-min Rain = 0
KBO1 131124Z 29009KT 03/M04 A2998 RMK A01 T00301040  RH  060%=      5-min Rain = 0
KBO1 131125Z 29009KT 03/M04 A2998 RMK A01 T00301039  RH  061%=      5-min Rain = 0
KBO1 131126Z 29010KT 03/M04 A2998 RMK A01 T00301039  RH  061%=      5-min Rain = 0
KBO1 131127Z 29010KT 03/M04 A2998 RMK A01 T00301038  RH  061%=      5-min Rain = 0
KBO1 131128Z 28010KT 03/M04 A2998 RMK A01 T00321036  RH  061%=      5-min Rain = 0
KBO1 131129Z 28011KT 03/M03 A2998 RMK A01 T00341034  RH  061%=      5-min Rain = 0
KBO1 131130Z 28011KT 04/M03 A2998 RMK A01 T00361033  RH  061%=      5-min Rain = 0
KBO1 131131Z 28011KT 04/M03 A2998 RMK A01 T00391031  RH  060%=      5-min Rain = 0
KBO1 131132Z 29012KT 04/M03 A2998 RMK A01 T00431029  RH  060%=      5-min Rain = 0
KBO1 131133Z 29012KT 05/M03 A2998 RMK A01 T00471028  RH  058%=      5-min Rain = 0
KBO1 131134Z 29012KT 05/M03 A2998 RMK A01 T00501027  RH  057%=      5-min Rain = 0
KBO1 131135Z 29012KT 05/M03 A2998 RMK A01 T00531027  RH  056%=      5-min Rain = 0
KBO1 131136Z 29013KT 06/M03 A2998 RMK A01 T00551027  RH  055%=      5-min Rain = 0
KBO1 131137Z 29012KT 06/M03 A2998 RMK A01 T00581027  RH  054%=      5-min Rain = 0
KBO1 131138Z 29012KT 06/M03 A2998 RMK A01 T00591027  RH  054%=      5-min Rain = 0
KBO1 131139Z 30012KT 06/M03 A2998 RMK A01 T00611027  RH  053%=      5-min Rain = 0
KBO1 131140Z 30012KT 06/M03 A2998 RMK A01 T00621028  RH  052%=      5-min Rain = 0
KBO1 131141Z 29011KT 06/M03 A2998 RMK A01 T00641028  RH  052%=      5-min Rain = 0
KBO1 131142Z 30010KT 06/M03 A2998 RMK A01 T00641028  RH  052%=      5-min Rain = 0
KBO1 131143Z 29010KT 06/M03 A2998 RMK A01 T00631029  RH  052%=      5-min Rain = 0
KBO1 131144Z 30010KT 06/M03 A2998 RMK A01 T00621029  RH  052%=      5-min Rain = 0
KBO1 131145Z 29010KT 06/M03 A2998 RMK A01 T00621028  RH  052%=      5-min Rain = 0
KBO1 131146Z 29009KT 06/M03 A2998 RMK A01 T00611028  RH  053%=      5-min Rain = 0
KBO1 131147Z 29009KT 06/M03 A2998 RMK A01 T00611028  RH  053%=      5-min Rain = 0
KBO1 131148Z 30010KT 06/M03 A2998 RMK A01 T00611028  RH  053%=      5-min Rain = 0
KBO1 131149Z 30010KT 06/M03 A2998 RMK A01 T00611028  RH  053%=      5-min Rain = 0
KBO1 131150Z 30010KT 06/M03 A2998 RMK A01 T00631027  RH  052%=      5-min Rain = 0
KBO1 131151Z 30009KT 06/M03 A2998 RMK A01 T00641027  RH  052%=      5-min Rain = 0
KBO1 131152Z 29010KT 07/M03 A2998 RMK A01 T00651027  RH  052%=      5-min Rain = 0
KBO1 131153Z 29010KT 07/M03 A2998 RMK A01 T00651027  RH  052%=      5-min Rain = 0
KBO1 131154Z 28010KT 07/M03 A2998 RMK A01 T00661026  RH  052%=      5-min Rain = 0
KBO1 131155Z 28012KT 07/M03 A2998 RMK A01 T00661027  RH  051%=      5-min Rain = 0
KBO1 131156Z 29013KT 07/M03 A2998 RMK A01 T00701026  RH  050%=      5-min Rain = 0
KBO1 131157Z 29013KT 07/M03 A2998 RMK A01 T00731027  RH  049%=      5-min Rain = 0
KBO1 131158Z 29013KT 08/M03 A2998 RMK A01 T00751027  RH  048%=      5-min Rain = 0
KBO1 131159Z 29013KT 08/M03 A2998 RMK A01 T00761028  RH  048%=      5-min Rain = 0
KBO1 131200Z 29013KT 08/M03 A2998 RMK A01 T00761029  RH  047%=      5-min Rain = 0
KBO1 131201Z 29013KT 08/M03 A2998 RMK A01 T00771029  RH  047%=      5-min Rain = 0
KBO1 131202Z 29012KT 08/M03 A2998 RMK A01 T00761030  RH  047%=      5-min Rain = 0
KBO1 131203Z 29012KT 08/M03 A2998 RMK A01 T00761030  RH  047%=      5-min Rain = 0
KBO1 131204Z 29011KT 08/M03 A2998 RMK A01 T00761030  RH  047%=      5-min Rain = 0
KBO1 131205Z 28009KT 07/M03 A2998 RMK A01 T00741030  RH  048%=      5-min Rain = 0
KBO1 131206Z 27009KT 07/M03 A2998 RMK A01 T00711030  RH  048%=      5-min Rain = 0
KBO1 131207Z 26009KT 07/M03 A2998 RMK A01 T00681031  RH  049%=      5-min Rain = 0
KBO1 131208Z 26009KT 07/M03 A2998 RMK A01 T00651031  RH  050%=      5-min Rain = 0
KBO1 131209Z 26008KT 06/M03 A2998 RMK A01 T00621031  RH  051%=      5-min Rain = 0
KBO1 131210Z 26010KT 06/M03 A2998 RMK A01 T00591031  RH  052%=      5-min Rain = 0
KBO1 131211Z 26009KT 06/M03 A2998 RMK A01 T00581032  RH  052%=      5-min Rain = 0
KBO1 131212Z 26009KT 06/M03 A2998 RMK A01 T00591032  RH  052%=      5-min Rain = 0
KBO1 131213Z 25009KT 06/M03 A2998 RMK A01 T00591032  RH  052%=      5-min Rain = 0
KBO1 131214Z 25009KT 06/M03 A2998 RMK A01 T00591032  RH  052%=      5-min Rain = 0
KBO1 131215Z 25009KT 06/M03 A2998 RMK A01 T00551032  RH  053%=      5-min Rain = 0
KBO1 131216Z 25009KT 05/M03 A2998 RMK A01 T00511033  RH  055%=      5-min Rain = 0
KBO1 131217Z 26009KT 05/M03 A2998 RMK A01 T00491032  RH  056%=      5-min Rain = 0
KBO1 131218Z 25009KT 05/M03 A2998 RMK A01 T00471032  RH  056%=      5-min Rain = 0
KBO1 131219Z 25010KT 05/M03 A2998 RMK A01 T00461032  RH  057%=      5-min Rain = 0
KBO1 131220Z 26009KT 05/M03 A2998 RMK A01 T00451033  RH  057%=      5-min Rain = 0
KBO1 131221Z 25010KT 04/M03 A2998 RMK A01 T00441033  RH  057%=      5-min Rain = 0
KBO1 131222Z 25010KT 04/M03 A2998 RMK A01 T00441033  RH  058%=      5-min Rain = 0
KBO1 131223Z 25010KT 04/M03 A2998 RMK A01 T00431033  RH  058%=      5-min Rain = 0
KBO1 131224Z 26010KT 04/M03 A2998 RMK A01 T00431032  RH  058%=      5-min Rain = 0
KBO1 131225Z 26010KT 04/M03 A2998 RMK A01 T00421032  RH  058%=      5-min Rain = 0
KBO1 131226Z 26010KT 04/M03 A2998 RMK A01 T00411033  RH  058%=      5-min Rain = 0
KBO1 131227Z 26010KT 04/M03 A2998 RMK A01 T00411033  RH  059%=      5-min Rain = 0
KBO1 131228Z 26010KT 04/M03 A2998 RMK A01 T00401033  RH  059%=      5-min Rain = 0
KBO1 131229Z 25010KT 04/M03 A2998 RMK A01 T00401033  RH  059%=      5-min Rain = 0
KBO1 131230Z 26010KT 04/M03 A2998 RMK A01 T00401033  RH  059%=      5-min Rain = 0
KBO1 131231Z 25009KT 04/M03 A2998 RMK A01 T00391033  RH  059%=      5-min Rain = 0
KBO1 131232Z 25009KT 04/M03 A2998 RMK A01 T00391033  RH  059%=      5-min Rain = 0
KBO1 131233Z 25009KT 04/M03 A2998 RMK A01 T00381033  RH  060%=      5-min Rain = 0
KBO1 131234Z 25009KT 04/M03 A2998 RMK A01 T00381034  RH  060%=      5-min Rain = 0
KBO1 131235Z 26009KT 04/M03 A2998 RMK A01 T00371033  RH  060%=      5-min Rain = 0
KBO1 131236Z 25009KT 04/M03 A2997 RMK A01 T00371034  RH  060%=      5-min Rain = 0
KBO1 131237Z 25009KT 04/M03 A2997 RMK A01 T00361034  RH  060%=      5-min Rain = 0
KBO1 131238Z 26009KT 04/M03 A2997 RMK A01 T00351034  RH  061%=      5-min Rain = 0
KBO1 131239Z 25009KT 03/M04 A2997 RMK A01 T00341035  RH  061%=      5-min Rain = 0
KBO1 131240Z 25009KT 03/M04 A2997 RMK A01 T00321035  RH  061%=      5-min Rain = 0
KBO1 131241Z 25009KT 03/M04 A2997 RMK A01 T00311036  RH  062%=      5-min Rain = 0
KBO1 131242Z 25008KT 03/M04 A2997 RMK A01 T00291036  RH  062%=      5-min Rain = 0
KBO1 131243Z 25008KT 03/M04 A2997 RMK A01 T00281037  RH  063%=      5-min Rain = 0
KBO1 131244Z 25009KT 03/M04 A2997 RMK A01 T00271037  RH  063%=      5-min Rain = 0
KBO1 131245Z 26009KT 03/M04 A2997 RMK A01 T00261038  RH  063%=      5-min Rain = 0
KBO1 131246Z 26008KT 03/M04 A2997 RMK A01 T00251038  RH  063%=      5-min Rain = 0
KBO1 131247Z 26008KT 02/M04 A2997 RMK A01 T00241038  RH  064%=      5-min Rain = 0
KBO1 131248Z 26008KT 02/M04 A2997 RMK A01 T00231038  RH  064%=      5-min Rain = 0
KBO1 131249Z 26008KT 02/M04 A2997 RMK A01 T00221039  RH  064%=      5-min Rain = 0
KBO1 131250Z 26008KT 02/M04 A2997 RMK A01 T00211039  RH  064%=      5-min Rain = 0
KBO1 131251Z 26009KT 02/M04 A2997 RMK A01 T00201040  RH  065%=      5-min Rain = 0
KBO1 131252Z 26009KT 02/M04 A2998 RMK A01 T00191040  RH  065%=      5-min Rain = 0
KBO1 131253Z 26008KT 02/M04 A2998 RMK A01 T00181040  RH  065%=      5-min Rain = 0
KBO1 131254Z 26008KT 02/M04 A2998 RMK A01 T00171040  RH  066%=      5-min Rain = 0
KBO1 131255Z 26008KT 02/M04 A2998 RMK A01 T00171040  RH  066%=      5-min Rain = 0
KBO1 131256Z 26008KT 02/M04 A2998 RMK A01 T00161040  RH  066%=      5-min Rain = 0
KBO1 131257Z 27007KT 02/M04 A2998 RMK A01 T00161040  RH  066%=      5-min Rain = 0
KBO1 131258Z 27007KT 02/M04 A2998 RMK A01 T00161040  RH  066%=      5-min Rain = 0
KBO1 131259Z 27007KT 02/M04 A2998 RMK A01 T00161040  RH  066%=      5-min Rain = 0
KBO1 131300Z 28007KT 02/M04 A2998 RMK A01 T00161040  RH  066%=      5-min Rain = 0
KBO1 131301Z 28007KT 02/M04 A2998 RMK A01 T00161040  RH  066%=      5-min Rain = 0
KBO1 131302Z 28007KT 02/M04 A2998 RMK A01 T00171040  RH  066%=      5-min Rain = 0
KBO1 131303Z 28007KT 02/M04 A2998 RMK A01 T00171041  RH  066%=      5-min Rain = 0
KBO1 131304Z 28007KT 02/M04 A2998 RMK A01 T00171041  RH  065%=      5-min Rain = 0
KBO1 131305Z 27007KT 02/M04 A2998 RMK A01 T00181041  RH  065%=      5-min Rain = 0
KBO1 131306Z 28007KT 02/M04 A2998 RMK A01 T00191041  RH  065%=      5-min Rain = 0
KBO1 131307Z 28007KT 02/M04 A2998 RMK A01 T00191041  RH  064%=      5-min Rain = 0
KBO1 131308Z 28008KT 02/M04 A2998 RMK A01 T00191041  RH  064%=      5-min Rain = 0
KBO1 131309Z 28008KT 02/M04 A2998 RMK A01 T00191041  RH  064%=      5-min Rain = 0
KBO1 131310Z 28008KT 02/M04 A2998 RMK A01 T00191041  RH  064%=      5-min Rain = 0
KBO1 131311Z 28008KT 02/M04 A2998 RMK A01 T00191041  RH  065%=      5-min Rain = 0
KBO1 131312Z 28008KT 02/M04 A2998 RMK A01 T00191040  RH  065%=      5-min Rain = 0
KBO1 131313Z 28008KT 02/M04 A2998 RMK A01 T00191040  RH  065%=      5-min Rain = 0
KBO1 131314Z 28007KT 02/M04 A2998 RMK A01 T00191040  RH  065%=      5-min Rain = 0
KBO1 131315Z 28007KT 02/M04 A2998 RMK A01 T00191039  RH  065%=      5-min Rain = 0
KBO1 131316Z 29007KT 02/M04 A2998 RMK A01 T00201039  RH  065%=      5-min Rain = 0
KBO1 131317Z 29007KT 02/M04 A2998 RMK A01 T00221038  RH  064%=      5-min Rain = 0
KBO1 131318Z 29007KT 02/M04 A2998 RMK A01 T00241038  RH  064%=      5-min Rain = 0
KBO1 131319Z 29007KT 03/M04 A2998 RMK A01 T00251038  RH  063%=      5-min Rain = 0
KBO1 131320Z 28006KT 03/M04 A2998 RMK A01 T00251038  RH  063%=      5-min Rain = 0
KBO1 131321Z 29006KT 03/M04 A2998 RMK A01 T00261038  RH  063%=      5-min Rain = 0
KBO1 131322Z 29006KT 03/M04 A2998 RMK A01 T00271038  RH  062%=      5-min Rain = 0
KBO1 131323Z 29006KT 03/M04 A2998 RMK A01 T00291037  RH  062%=      5-min Rain = 0
KBO1 131324Z 30006KT 03/M04 A2998 RMK A01 T00301037  RH  061%=      5-min Rain = 0
KBO1 131325Z 30006KT 03/M04 A2998 RMK A01 T00331037  RH  060%=      5-min Rain = 0
KBO1 131326Z 30005KT 04/M04 A2998 RMK A01 T00361036  RH  059%=      5-min Rain = 0
KBO1 131327Z 30005KT 04/M04 A2998 RMK A01 T00381036  RH  059%=      5-min Rain = 0
KBO1 131328Z 30005KT 04/M04 A2998 RMK A01 T00401036  RH  058%=      5-min Rain = 0
KBO1 131329Z 29005KT 04/M04 A2998 RMK A01 T00401037  RH  057%=      5-min Rain = 0
KBO1 131330Z 28005KT 04/M04 A2999 RMK A01 T00401037  RH  057%=      5-min Rain = 0
KBO1 131331Z 28006KT 04/M04 A2999 RMK A01 T00401038  RH  057%=      5-min Rain = 0
KBO1 131332Z 28006KT 04/M04 A2999 RMK A01 T00371040  RH  057%=      5-min Rain = 0
KBO1 131333Z 28006KT 03/M04 A2999 RMK A01 T00321041  RH  059%=      5-min Rain = 0
KBO1 131334Z 28006KT 03/M04 A2999 RMK A01 T00301040  RH  060%=      5-min Rain = 0
KBO1 131335Z 28005KT 03/M04 A2999 RMK A01 T00291040  RH  061%=      5-min Rain = 0
KBO1 131336Z 27005KT 03/M04 A2998 RMK A01 T00271040  RH  061%=      5-min Rain = 0
KBO1 131337Z 26005KT 02/M04 A2998 RMK A01 T00241041  RH  062%=      5-min Rain = 0
KBO1 131338Z 27005KT 02/M04 A2998 RMK A01 T00221040  RH  063%=      5-min Rain = 0
KBO1 131339Z 27005KT 02/M04 A2998 RMK A01 T00211040  RH  064%=      5-min Rain = 0
KBO1 131340Z 27005KT 02/M04 A2998 RMK A01 T00201040  RH  064%=      5-min Rain = 0
KBO1 131341Z 27005KT 02/M04 A2998 RMK A01 T00191040  RH  065%=      5-min Rain = 0
KBO1 131342Z 27006KT 02/M04 A2998 RMK A01 T00201040  RH  065%=      5-min Rain = 0
KBO1 131343Z 26006KT 02/M04 A2999 RMK A01 T00201040  RH  065%=      5-min Rain = 0
KBO1 131344Z 26006KT 02/M04 A2999 RMK A01 T00181040  RH  065%=      5-min Rain = 0
KBO1 131345Z 26006KT 02/M04 A2998 RMK A01 T00191039  RH  065%=      5-min Rain = 0
KBO1 131346Z 26006KT 02/M04 A2998 RMK A01 T00201038  RH  065%=      5-min Rain = 0
KBO1 131347Z 26006KT 02/M04 A2998 RMK A01 T00201038  RH  065%=      5-min Rain = 0
KBO1 131348Z 25006KT 02/M04 A2998 RMK A01 T00211038  RH  065%=      5-min Rain = 0
KBO1 131349Z 25005KT 02/M04 A2998 RMK A01 T00191040  RH  065%=      5-min Rain = 0
KBO1 131350Z 25005KT 02/M04 A2998 RMK A01 T00161041  RH  066%=      5-min Rain = 0
KBO1 131351Z 25005KT 02/M04 A2999 RMK A01 T00151040  RH  067%=      5-min Rain = 0
KBO1 131352Z 26005KT 02/M04 A2999 RMK A01 T00171039  RH  067%=      5-min Rain = 0
KBO1 131353Z 25005KT 02/M04 A2999 RMK A01 T00191038  RH  066%=      5-min Rain = 0
KBO1 131354Z 25005KT 02/M04 A2999 RMK A01 T00191039  RH  066%=      5-min Rain = 0
KBO1 131355Z 26005KT 02/M04 A2999 RMK A01 T00191039  RH  066%=      5-min Rain = 0
KBO1 131356Z 26005KT 02/M04 A2999 RMK A01 T00181039  RH  066%=      5-min Rain = 0
KBO1 131357Z 26006KT 02/M04 A30 RMK A01 T00181038  RH  067%=      5-min Rain = 0
KBO1 131358Z 26006KT 02/M04 A30 RMK A01 T00181036  RH  067%=      5-min Rain = 0
KBO1 131359Z 26006KT 02/M03 A2999 RMK A01 T00201034  RH  067%=      5-min Rain = 0
KBO1 131400Z 26007KT 02/M03 A2999 RMK A01 T00221033  RH  067%=      5-min Rain = 0
KBO1 131401Z 26007KT 02/M03 A2999 RMK A01 T00231033  RH  066%=      5-min Rain = 0
KBO1 131402Z 26008KT 02/M03 A2999 RMK A01 T00241032  RH  066%=      5-min Rain = 0
KBO1 131403Z 27008KT 03/M03 A2999 RMK A01 T00251032  RH  066%=      5-min Rain = 0
KBO1 131404Z 26009KT 02/M03 A30 RMK A01 T00231033  RH  066%=      5-min Rain = 0
KBO1 131405Z 27009KT 02/M03 A30 RMK A01 T00211032  RH  068%=      5-min Rain = 0
KBO1 131406Z 27009KT 02/M03 A30 RMK A01 T00211030  RH  069%=      5-min Rain = 0
KBO1 131407Z 27009KT 02/M03 A30 RMK A01 T00211029  RH  070%=      5-min Rain = 0
KBO1 131408Z 27009KT 02/M03 A30 RMK A01 T00231027  RH  070%=      5-min Rain = 0
KBO1 131409Z 26009KT 02/M03 A30 RMK A01 T00241026  RH  069%=      5-min Rain = 0
KBO1 131410Z 26007KT 03/M03 A30 RMK A01 T00251026  RH  069%=      5-min Rain = 0
KBO1 131411Z 25007KT 02/M03 A30 RMK A01 T00241027  RH  069%=      5-min Rain = 0
KBO1 131412Z 25007KT 02/M03 A30 RMK A01 T00211029  RH  069%=      5-min Rain = 0
KBO1 131413Z 25008KT 02/M03 A30 RMK A01 T00201028  RH  070%=      5-min Rain = 0
KBO1 131414Z 25008KT 02/M03 A30 RMK A01 T00201027  RH  071%=      5-min Rain = 0
KBO1 131415Z 25008KT 02/M03 A30 RMK A01 T00211026  RH  071%=      5-min Rain = 0
KBO1 131416Z 25009KT 02/M03 A30 RMK A01 T00241025  RH  070%=      5-min Rain = 0
KBO1 131417Z 26009KT 03/M02 A30 RMK A01 T00261024  RH  070%=      5-min Rain = 0
KBO1 131418Z 26009KT 03/M02 A30 RMK A01 T00281023  RH  069%=      5-min Rain = 0
KBO1 131419Z 26010KT 03/M02 A2999 RMK A01 T00291022  RH  069%=      5-min Rain = 0
KBO1 131420Z 25010KT 03/M02 A2999 RMK A01 T00311021  RH  068%=      5-min Rain = 0
KBO1 131421Z 26011KT 03/M02 A2999 RMK A01 T00341021  RH  068%=      5-min Rain = 0
KBO1 131422Z 26012KT 04/M02 A2999 RMK A01 T00361020  RH  067%=      5-min Rain = 0
KBO1 131423Z 26012KT 04/M02 A2999 RMK A01 T00401019  RH  065%=      5-min Rain = 0
KBO1 131424Z 25011KT 04/M02 A2999 RMK A01 T00441019  RH  064%=      5-min Rain = 0
KBO1 131425Z 25011KT 05/M02 A2999 RMK A01 T00461019  RH  063%=      5-min Rain = 0
KBO1 131426Z 24010KT 05/M02 A2999 RMK A01 T00481018  RH  062%=      5-min Rain = 0
KBO1 131427Z 24010KT 05/M02 A2999 RMK A01 T00501017  RH  062%=      5-min Rain = 0
KBO1 131428Z 24011KT 05/M02 A2999 RMK A01 T00501017  RH  061%=      5-min Rain = 0
KBO1 131429Z 24012KT 05/M02 A2999 RMK A01 T00501018  RH  061%=      5-min Rain = 0
KBO1 131430Z 25012KT 05/M02 A30 RMK A01 T00511019  RH  061%=      5-min Rain = 0
KBO1 131431Z 26012KT 05/M02 A30 RMK A01 T00511019  RH  060%=      5-min Rain = 0
KBO1 131432Z 26011KT 05/M02 A30 RMK A01 T00531019  RH  060%=      5-min Rain = 0
KBO1 131433Z 25011KT 06/M02 A30 RMK A01 T00551018  RH  059%=      5-min Rain = 0
KBO1 131434Z 25011KT 06/M02 A30 RMK A01 T00561018  RH  059%=      5-min Rain = 0
KBO1 131435Z 25011KT 06/M02 A30 RMK A01 T00571018  RH  058%=      5-min Rain = 0
KBO1 131436Z 25011KT 06/M02 A30 RMK A01 T00591018  RH  058%=      5-min Rain = 0
KBO1 131437Z 25011KT 06/M02 A30 RMK A01 T00601018  RH  057%=      5-min Rain = 0
KBO1 131438Z 25011KT 06/M02 A30 RMK A01 T00611018  RH  057%=      5-min Rain = 0
KBO1 131439Z 25010KT 06/M02 A2999 RMK A01 T00621018  RH  057%=      5-min Rain = 0
KBO1 131440Z 24009KT 06/M02 A2999 RMK A01 T00621018  RH  057%=      5-min Rain = 0
KBO1 131441Z 24010KT 06/M02 A2999 RMK A01 T00601018  RH  057%=      5-min Rain = 0
KBO1 131442Z 24009KT 06/M02 A2999 RMK A01 T00591019  RH  058%=      5-min Rain = 0
KBO1 131443Z 24011KT 06/M02 A2999 RMK A01 T00571020  RH  058%=      5-min Rain = 0
KBO1 131444Z 25012KT 05/M02 A2999 RMK A01 T00541022  RH  058%=      5-min Rain = 0
KBO1 131445Z 25010KT 05/M02 A2999 RMK A01 T00541023  RH  058%=      5-min Rain = 0
KBO1 131446Z 26010KT 05/M02 A2999 RMK A01 T00541022  RH  058%=      5-min Rain = 0
KBO1 131447Z 26010KT 05/M02 A30 RMK A01 T00541022  RH  058%=      5-min Rain = 0
KBO1 131448Z 26011KT 06/M02 A30 RMK A01 T00561021  RH  058%=      5-min Rain = 0
KBO1 131449Z 26010KT 06/M02 A30 RMK A01 T00581021  RH  057%=      5-min Rain = 0
KBO1 131450Z 26008KT 06/M02 A30 RMK A01 T00591020  RH  057%=      5-min Rain = 0
KBO1 131451Z 26008KT 06/M02 A2999 RMK A01 T00611020  RH  056%=      5-min Rain = 0
KBO1 131452Z 27008KT 06/M02 A2999 RMK A01 T00621020  RH  056%=      5-min Rain = 0
KBO1 131453Z 27008KT 06/M02 A2999 RMK A01 T00641020  RH  055%=      5-min Rain = 0
KBO1 131454Z 27008KT 07/M02 A2999 RMK A01 T00661019  RH  055%=      5-min Rain = 0
KBO1 131455Z 27010KT 07/M02 A30 RMK A01 T00681019  RH  054%=      5-min Rain = 0
KBO1 131456Z 27009KT 07/M02 A30 RMK A01 T00691019  RH  053%=      5-min Rain = 0
KBO1 131457Z 26009KT 07/M02 A2999 RMK A01 T00701019  RH  053%=      5-min Rain = 0
KBO1 131458Z 26009KT 07/M02 A2999 RMK A01 T00691020  RH  053%=      5-min Rain = 0
KBO1 131459Z 26011KT 07/M02 A2999 RMK A01 T00691019  RH  053%=      5-min Rain = 0
KBO1 131500Z 26012KT 07/M02 A2999 RMK A01 T00681020  RH  054%=      5-min Rain = 0
KBO1 131501Z 26011KT 07/M02 A2999 RMK A01 T00681020  RH  053%=      5-min Rain = 0
KBO1 131502Z 26011KT 07/M02 A2999 RMK A01 T00681020  RH  054%=      5-min Rain = 0
KBO1 131503Z 26011KT 07/M02 A30 RMK A01 T00681018  RH  054%=      5-min Rain = 0
KBO1 131504Z 25012KT 07/M02 A30 RMK A01 T00701017  RH  054%=      5-min Rain = 0
KBO1 131505Z 25013KT 07/M02 A30 RMK A01 T00701017  RH  054%=      5-min Rain = 0
KBO1 131506Z 25011KT 07/M02 A2999 RMK A01 T00701018  RH  054%=      5-min Rain = 0
KBO1 131507Z 26011KT 07/M02 A2999 RMK A01 T00711017  RH  054%=      5-min Rain = 0
KBO1 131508Z 26011KT 07/M02 A2999 RMK A01 T00711017  RH  053%=      5-min Rain = 0
KBO1 131509Z 26011KT 07/M02 A2999 RMK A01 T00721017  RH  053%=      5-min Rain = 0
KBO1 131510Z 26011KT 07/M02 A2999 RMK A01 T00731018  RH  052%=      5-min Rain = 0
KBO1 131511Z 27009KT 08/M02 A2999 RMK A01 T00751018  RH  052%=      5-min Rain = 0
KBO1 131512Z 26012KT 08/M02 A2999 RMK A01 T00761019  RH  051%=      5-min Rain = 0
KBO1 131513Z 26013G19KT 08/M02 A2999 RMK A01 T00771019  RH  051%=      5-min Rain = 0
KBO1 131514Z 26012KT 08/M02 A2999 RMK A01 T00791019  RH  050%=      5-min Rain = 0
KBO1 131515Z 26012KT 08/M02 A30 RMK A01 T00811019  RH  050%=      5-min Rain = 0
KBO1 131516Z 26011KT 08/M02 A30 RMK A01 T00821018  RH  049%=      5-min Rain = 0
KBO1 131517Z 26011KT 08/M02 A30 RMK A01 T00831018  RH  049%=      5-min Rain = 0
KBO1 131518Z 26012KT 09/M02 A30 RMK A01 T00851017  RH  049%=      5-min Rain = 0
KBO1 131519Z 26013KT 09/M02 A2999 RMK A01 T00871018  RH  048%=      5-min Rain = 0
KBO1 131520Z 26012KT 09/M02 A2999 RMK A01 T00881016  RH  048%=      5-min Rain = 0
KBO1 131521Z 26012KT 09/M02 A2999 RMK A01 T00891016  RH  048%=      5-min Rain = 0
KBO1 131522Z 26014KT 09/M02 A2999 RMK A01 T00911015  RH  048%=      5-min Rain = 0
KBO1 131523Z 26015KT 09/M02 A2999 RMK A01 T00921015  RH  047%=      5-min Rain = 0
KBO1 131524Z 25016KT 09/M02 A2999 RMK A01 T00931016  RH  047%=      5-min Rain = 0
KBO1 131525Z 25015KT 09/M02 A2999 RMK A01 T00931017  RH  046%=      5-min Rain = 0
KBO1 131526Z 25017KT 09/M02 A2999 RMK A01 T00921017  RH  046%=      5-min Rain = 0
KBO1 131527Z 25015KT 09/M02 A2999 RMK A01 T00921017  RH  046%=      5-min Rain = 0
KBO1 131528Z 25015KT 09/M02 A2999 RMK A01 T00931015  RH  047%=      5-min Rain = 0
KBO1 131529Z 25014KT 09/M01 A2999 RMK A01 T00941014  RH  047%=      5-min Rain = 0
KBO1 131530Z 25015KT 10/M01 A2999 RMK A01 T00951013  RH  047%=      5-min Rain = 0
KBO1 131531Z 26014KT 10/M01 A2999 RMK A01 T00961014  RH  046%=      5-min Rain = 0
KBO1 131532Z 26015KT 10/M02 A2999 RMK A01 T00961015  RH  046%=      5-min Rain = 0
KBO1 131533Z 26015KT 10/M02 A2999 RMK A01 T00981015  RH  045%=      5-min Rain = 0
KBO1 131534Z 26014KT 10/M02 A2999 RMK A01 T00991015  RH  045%=      5-min Rain = 0
KBO1 131535Z 25015KT 10/M01 A2999 RMK A01 T01001014  RH  045%=      5-min Rain = 0
KBO1 131536Z 26014KT 10/M01 A2999 RMK A01 T01001013  RH  045%=      5-min Rain = 0
KBO1 131537Z 26013KT 10/M01 A2998 RMK A01 T01001014  RH  045%=      5-min Rain = 0
KBO1 131538Z 26015KT 10/M02 A2999 RMK A01 T01001015  RH  045%=      5-min Rain = 0
KBO1 131539Z 26013KT 10/M02 A2999 RMK A01 T01011015  RH  044%=      5-min Rain = 0
KBO1 131540Z 26013KT 10/M01 A2999 RMK A01 T01031014  RH  044%=      5-min Rain = 0
KBO1 131541Z 26013KT 10/M02 A2999 RMK A01 T01031015  RH  044%=      5-min Rain = 0
KBO1 131542Z 26013KT 10/M01 A2999 RMK A01 T01041014  RH  044%=      5-min Rain = 0
KBO1 131543Z 26014KT 11/M02 A2999 RMK A01 T01051015  RH  043%=      5-min Rain = 0
KBO1 131544Z 26014KT 11/M01 A2999 RMK A01 T01051014  RH  043%=      5-min Rain = 0
KBO1 131545Z 26014KT 11/M02 A2999 RMK A01 T01061015  RH  043%=      5-min Rain = 0
KBO1 131546Z 26016KT 11/M01 A2999 RMK A01 T01061014  RH  043%=      5-min Rain = 0
KBO1 131547Z 26014KT 11/M02 A2999 RMK A01 T01061015  RH  043%=      5-min Rain = 0
KBO1 131548Z 26013KT 11/M01 A2999 RMK A01 T01061014  RH  043%=      5-min Rain = 0
KBO1 131549Z 26014KT 11/M02 A2999 RMK A01 T01071015  RH  043%=      5-min Rain = 0
KBO1 131550Z 26013KT 11/M02 A2999 RMK A01 T01081015  RH  042%=      5-min Rain = 0
KBO1 131551Z 26014KT 11/M01 A2999 RMK A01 T01091013  RH  043%=      5-min Rain = 0
KBO1 131552Z 26013KT 11/M01 A2999 RMK A01 T01091013  RH  043%=      5-min Rain = 0
KBO1 131553Z 26013KT 11/M01 A2999 RMK A01 T01101013  RH  042%=      5-min Rain = 0
KBO1 131554Z 26010KT 11/M01 A2999 RMK A01 T01111013  RH  042%=      5-min Rain = 0
KBO1 131555Z 26010KT 11/M01 A2999 RMK A01 T01121012  RH  042%=      5-min Rain = 0
KBO1 131556Z 26010KT 11/M01 A2999 RMK A01 T01131012  RH  042%=      5-min Rain = 0
KBO1 131557Z 27011KT 12/M01 A2999 RMK A01 T01161013  RH  041%=      5-min Rain = 0
KBO1 131558Z 27011KT 12/M01 A2999 RMK A01 T01181012  RH  041%=      5-min Rain = 0
KBO1 131559Z 27012KT 12/M01 A2999 RMK A01 T01191014  RH  039%=      5-min Rain = 0
KBO1 131600Z 27012KT 12/M02 A2999 RMK A01 T01191015  RH  039%=      5-min Rain = 0
KBO1 131601Z 27013KT 12/M02 A2999 RMK A01 T01191015  RH  039%=      5-min Rain = 0
KBO1 131602Z 27012KT 12/M01 A2999 RMK A01 T01201014  RH  039%=      5-min Rain = 0
KBO1 131603Z 27011KT 12/M01 A2999 RMK A01 T01211014  RH  039%=      5-min Rain = 0
KBO1 131604Z 27010KT 12/M01 A2999 RMK A01 T01221012  RH  039%=      5-min Rain = 0
KBO1 131605Z 27010KT 12/M01 A2998 RMK A01 T01241013  RH  039%=      5-min Rain = 0
KBO1 131606Z 27009KT 13/M01 A2998 RMK A01 T01251012  RH  039%=      5-min Rain = 0
KBO1 131607Z 28011KT 13/M01 A2998 RMK A01 T01271012  RH  038%=      5-min Rain = 0
KBO1 131608Z 28014KT 13/M02 A2998 RMK A01 T01281015  RH  037%=      5-min Rain = 0
KBO1 131609Z 28013KT 13/M02 A2998 RMK A01 T01291017  RH  036%=      5-min Rain = 0
KBO1 131610Z 28015KT 13/M02 A2999 RMK A01 T01301016  RH  036%=      5-min Rain = 0
KBO1 131611Z 28014KT 13/M02 A2999 RMK A01 T01311016  RH  036%=      5-min Rain = 0
KBO1 131612Z 28015KT 13/M02 A2999 RMK A01 T01311016  RH  036%=      5-min Rain = 0
KBO1 131613Z 29016KT 13/M02 A2999 RMK A01 T01321016  RH  036%=      5-min Rain = 0
KBO1 131614Z 29015KT 13/M02 A2999 RMK A01 T01341016  RH  036%=      5-min Rain = 0
KBO1 131615Z 29017KT 13/M02 A2999 RMK A01 T01341015  RH  036%=      5-min Rain = 0
KBO1 131616Z 29018KT 14/M02 A2999 RMK A01 T01351016  RH  035%=      5-min Rain = 0
KBO1 131617Z 29019KT 14/M02 A2999 RMK A01 T01351017  RH  035%=      5-min Rain = 0
KBO1 131618Z 29017KT 14/M02 A2999 RMK A01 T01361017  RH  035%=      5-min Rain = 0
KBO1 131619Z 29020G25KT 14/M02 A2999 RMK A01 T01371016  RH  035%=      5-min Rain = 0
KBO1 131620Z 29021KT 14/M02 A2999 RMK A01 T01381017  RH  034%=      5-min Rain = 0
KBO1 131621Z 29023KT 14/M02 A2999 RMK A01 T01381018  RH  034%=      5-min Rain = 0
KBO1 131622Z 29022KT 14/M02 A2999 RMK A01 T01381018  RH  034%=      5-min Rain = 0
KBO1 131623Z 30021G26KT 14/M02 A2999 RMK A01 T01381018  RH  034%=      5-min Rain = 0
KBO1 131624Z 29020KT 14/M02 A2999 RMK A01 T01381017  RH  034%=      5-min Rain = 0
KBO1 131625Z 29020KT 14/M02 A2999 RMK A01 T01391017  RH  034%=      5-min Rain = 0
KBO1 131626Z 30020KT 14/M02 A2999 RMK A01 T01391018  RH  034%=      5-min Rain = 0
KBO1 131627Z 29020G25KT 14/M02 A30 RMK A01 T01401017  RH  034%=      5-min Rain = 0
KBO1 131628Z 30022G27KT 14/M02 A30 RMK A01 T01401018  RH  034%=      5-min Rain = 0
KBO1 131629Z 29022KT 14/M02 A30 RMK A01 T01391018  RH  034%=      5-min Rain = 0
KBO1 131630Z 29023KT 14/M02 A30 RMK A01 T01391018  RH  034%=      5-min Rain = 0
KBO1 131631Z 29023KT 14/M02 A2999 RMK A01 T01391018  RH  034%=      5-min Rain = 0
KBO1 131632Z 30021G27KT 14/M02 A2999 RMK A01 T01391018  RH  034%=      5-min Rain = 0
KBO1 131633Z 29023G28KT 14/M02 A2999 RMK A01 T01391018  RH  034%=      5-min Rain = 0
KBO1 131634Z 29021G27KT 14/M02 A2999 RMK A01 T01391018  RH  034%=      5-min Rain = 0
KBO1 131635Z 29022G27KT 14/M02 A30 RMK A01 T01411017  RH  034%=      5-min Rain = 0
KBO1 131636Z 29022KT 14/M02 A30 RMK A01 T01421017  RH  033%=      5-min Rain = 0
KBO1 131637Z 29020G25KT 14/M02 A30 RMK A01 T01421017  RH  033%=      5-min Rain = 0
KBO1 131638Z 29018KT 14/M02 A30 RMK A01 T01421015  RH  034%=      5-min Rain = 0
KBO1 131639Z 29021G31KT 14/M02 A30 RMK A01 T01441016  RH  033%=      5-min Rain = 0
KBO1 131640Z 29024G30KT 14/M02 A30 RMK A01 T01431018  RH  033%=      5-min Rain = 0
KBO1 131641Z 29021KT 14/M02 A30 RMK A01 T01411018  RH  033%=      5-min Rain = 0
KBO1 131642Z 28020KT 14/M02 A30 RMK A01 T01411017  RH  034%=      5-min Rain = 0
KBO1 131643Z 28023KT 14/M02 A2999 RMK A01 T01411018  RH  033%=      5-min Rain = 0
KBO1 131644Z 29023KT 14/M02 A2999 RMK A01 T01401019  RH  033%=      5-min Rain = 0
KBO1 131645Z 28023KT 14/M02 A30 RMK A01 T01401019  RH  033%=      5-min Rain = 0
KBO1 131646Z 28021KT 14/M02 A30 RMK A01 T01401018  RH  034%=      5-min Rain = 0
KBO1 131647Z 28018KT 14/M02 A30 RMK A01 T01401017  RH  034%=      5-min Rain = 0
KBO1 131648Z 29016G22KT 14/M02 A2999 RMK A01 T01421015  RH  034%=      5-min Rain = 0
KBO1 131649Z 29018KT 15/M02 A2999 RMK A01 T01451016  RH  033%=      5-min Rain = 0
KBO1 131650Z 29017G23KT 14/M02 A2999 RMK A01 T01441017  RH  033%=      5-min Rain = 0
KBO1 131651Z 28022KT 14/M02 A2999 RMK A01 T01441018  RH  033%=      5-min Rain = 0
KBO1 131652Z 28021KT 14/M02 A2999 RMK A01 T01431018  RH  033%=      5-min Rain = 0
KBO1 131653Z 29022KT 14/M02 A2999 RMK A01 T01431018  RH  033%=      5-min Rain = 0
KBO1 131654Z 29021KT 14/M02 A2999 RMK A01 T01421019  RH  033%=      5-min Rain = 0
KBO1 131655Z 30018KT 14/M02 A2999 RMK A01 T01421017  RH  033%=      5-min Rain = 0
KBO1 131656Z 30017KT 14/M02 A2999 RMK A01 T01441015  RH  033%=      5-min Rain = 0
KBO1 131657Z 29018KT 15/M01 A2999 RMK A01 T01471014  RH  033%=      5-min Rain = 0
KBO1 131658Z 28021KT 15/M02 A2999 RMK A01 T01471017  RH  032%=      5-min Rain = 0
KBO1 131659Z 28019KT 15/M02 A2999 RMK A01 T01461019  RH  032%=      5-min Rain = 0
KBO1 131700Z 29019KT 15/M02 A2999 RMK A01 T01451018  RH  033%=      5-min Rain = 0
KBO1 131701Z 29021KT 15/M02 A2999 RMK A01 T01451018  RH  033%=      5-min Rain = 0
KBO1 131702Z 28023G28KT 15/M02 A2999 RMK A01 T01451019  RH  032%=      5-min Rain = 0
KBO1 131703Z 29022KT 15/M02 A2999 RMK A01 T01451019  RH  032%=      5-min Rain = 0
KBO1 131704Z 29021KT 15/M02 A2999 RMK A01 T01451018  RH  032%=      5-min Rain = 0
KBO1 131705Z 29018KT 15/M02 A2999 RMK A01 T01461017  RH  032%=      5-min Rain = 0
KBO1 131706Z 28023KT 15/M02 A2998 RMK A01 T01491017  RH  032%=      5-min Rain = 0
KBO1 131707Z 30021KT 15/M02 A2999 RMK A01 T01481018  RH  032%=      5-min Rain = 0
KBO1 131708Z 29023KT 15/M02 A2998 RMK A01 T01481018  RH  032%=      5-min Rain = 0
KBO1 131709Z 29023G29KT 15/M02 A2998 RMK A01 T01481020  RH  031%=      5-min Rain = 0
KBO1 131710Z 29024KT 15/M02 A2999 RMK A01 T01481020  RH  032%=      5-min Rain = 0
KBO1 131711Z 29022KT 15/M02 A2999 RMK A01 T01471019  RH  032%=      5-min Rain = 0
KBO1 131712Z 29020G26KT 15/M02 A2998 RMK A01 T01471019  RH  032%=      5-min Rain = 0
KBO1 131713Z 29026G33KT 15/M02 A2998 RMK A01 T01491018  RH  032%=      5-min Rain = 0
KBO1 131714Z 29024G34KT 15/M02 A2998 RMK A01 T01491023  RH  031%=      5-min Rain = 0
KBO1 131715Z 29023KT 15/M02 A2998 RMK A01 T01471023  RH  031%=      5-min Rain = 0
KBO1 131716Z 29021KT 15/M02 A2998 RMK A01 T01481020  RH  031%=      5-min Rain = 0
KBO1 131717Z 28023KT 15/M02 A2998 RMK A01 T01501020  RH  031%=      5-min Rain = 0
KBO1 131718Z 29029KT 15/M02 A2998 RMK A01 T01501022  RH  030%=      5-min Rain = 0
KBO1 131719Z 29023G31KT 15/M03 A2997 RMK A01 T01491025  RH  030%=      5-min Rain = 0
KBO1 131720Z 29019KT 15/M02 A2997 RMK A01 T01471023  RH  031%=      5-min Rain = 0
KBO1 131721Z 30022KT 15/M02 A2997 RMK A01 T01491020  RH  031%=      5-min Rain = 0
KBO1 131722Z 30023KT 15/M02 A2997 RMK A01 T01511021  RH  031%=      5-min Rain = 0
KBO1 131723Z 30022G29KT 15/M02 A2998 RMK A01 T01501021  RH  031%=      5-min Rain = 0
KBO1 131724Z 30022G28KT 15/M02 A2997 RMK A01 T01491022  RH  031%=      5-min Rain = 0
KBO1 131725Z 30019KT 15/M02 A2998 RMK A01 T01481023  RH  031%=      5-min Rain = 0
KBO1 131726Z 31023KT 15/M02 A2997 RMK A01 T01491020  RH  031%=      5-min Rain = 0
KBO1 131727Z 30023KT 15/M02 A2997 RMK A01 T01501023  RH  030%=      5-min Rain = 0
KBO1 131728Z 30023KT 15/M02 A2997 RMK A01 T01491023  RH  031%=      5-min Rain = 0
KBO1 131729Z 29021G27KT 15/M02 A2997 RMK A01 T01481021  RH  031%=      5-min Rain = 0
KBO1 131730Z 29024G29KT 15/M02 A2997 RMK A01 T01491019  RH  031%=      5-min Rain = 0
KBO1 131731Z 30028KT 15/M02 A2997 RMK A01 T01501021  RH  031%=      5-min Rain = 0
KBO1 131732Z 30021KT 15/M02 A2998 RMK A01 T01491022  RH  031%=      5-min Rain = 0
KBO1 131733Z 30023G29KT 15/M02 A2998 RMK A01 T01501020  RH  031%=      5-min Rain = 0
KBO1 131734Z 29025KT 15/M02 A2998 RMK A01 T01521021  RH  030%=      5-min Rain = 0
KBO1 131735Z 30026KT 15/M02 A2998 RMK A01 T01501022  RH  031%=      5-min Rain = 0
KBO1 131736Z 30022KT 15/M02 A2998 RMK A01 T01501022  RH  030%=      5-min Rain = 0
KBO1 131737Z 29025KT 15/M02 A2998 RMK A01 T01531020  RH  030%=      5-min Rain = 0
KBO1 131738Z 29026G32KT 15/M02 A2998 RMK A01 T01531022  RH  030%=      5-min Rain = 0
KBO1 131739Z 29023KT 15/M02 A2997 RMK A01 T01521023  RH  030%=      5-min Rain = 0
KBO1 131740Z 29024G29KT 15/M02 A2997 RMK A01 T01521023  RH  030%=      5-min Rain = 0
KBO1 131741Z 29025G30KT 15/M02 A2997 RMK A01 T01521022  RH  030%=      5-min Rain = 0
KBO1 131742Z 29023G28KT 15/M02 A2997 RMK A01 T01531023  RH  030%=      5-min Rain = 0
KBO1 131743Z 29026KT 15/M02 A2997 RMK A01 T01541024  RH  029%=      5-min Rain = 0
KBO1 131744Z 29022G27KT 15/M02 A2998 RMK A01 T01541023  RH  029%=      5-min Rain = 0
KBO1 131745Z 30023G28KT 15/M02 A2997 RMK A01 T01531021  RH  030%=      5-min Rain = 0
KBO1 131746Z 30027KT 15/M02 A2997 RMK A01 T01541022  RH  030%=      5-min Rain = 0
KBO1 131747Z 29024G29KT 15/M03 A2997 RMK A01 T01521025  RH  030%=      5-min Rain = 0
KBO1 131748Z 30029KT 15/M02 A2997 RMK A01 T01521024  RH  030%=      5-min Rain = 0
KBO1 131749Z 29026KT 15/M02 A2998 RMK A01 T01531023  RH  030%=      5-min Rain = 0
KBO1 131750Z 30027KT 15/M03 A2997 RMK A01 T01531025  RH  029%=      5-min Rain = 0
KBO1 131751Z 31025KT 15/M02 A2997 RMK A01 T01521024  RH  030%=      5-min Rain = 0
KBO1 131752Z 30023KT 15/M02 A2997 RMK A01 T01521021  RH  030%=      5-min Rain = 0
KBO1 131753Z 30026G31KT 15/M02 A2997 RMK A01 T01531020  RH  030%=      5-min Rain = 0
KBO1 131754Z 30023G28KT 15/M02 A2996 RMK A01 T01541022  RH  030%=      5-min Rain = 0
KBO1 131755Z 31022G27KT 15/M02 A2996 RMK A01 T01541021  RH  030%=      5-min Rain = 0
KBO1 131756Z 31024G30KT 16/M02 A2996 RMK A01 T01551021  RH  030%=      5-min Rain = 0
KBO1 131757Z 30025G30KT 16/M02 A2996 RMK A01 T01561024  RH  029%=      5-min Rain = 0
KBO1 131758Z 30024KT 16/M03 A2996 RMK A01 T01551026  RH  029%=      5-min Rain = 0
KBO1 131759Z 30022KT 16/M03 A2996 RMK A01 T01551025  RH  029%=      5-min Rain = 0
KBO1 131800Z 31022G30KT 16/M02 A2996 RMK A01 T01561022  RH  029%=      5-min Rain = 0
KBO1 131801Z 30023KT 16/M02 A2996 RMK A01 T01571023  RH  029%=      5-min Rain = 0
KBO1 131802Z 30021KT 16/M02 A2996 RMK A01 T01561023  RH  029%=      5-min Rain = 0
KBO1 131803Z 30023KT 16/M02 A2996 RMK A01 T01571023  RH  029%=      5-min Rain = 0
KBO1 131804Z 30020G25KT 16/M02 A2996 RMK A01 T01581023  RH  029%=      5-min Rain = 0
KBO1 131805Z 31024G29KT 16/M02 A2996 RMK A01 T01591024  RH  028%=      5-min Rain = 0
KBO1 131806Z 30026KT 16/M03 A2995 RMK A01 T01601026  RH  028%=      5-min Rain = 0
KBO1 131807Z 31025KT 16/M03 A2995 RMK A01 T01581028  RH  028%=      5-min Rain = 0
KBO1 131808Z 31023G29KT 16/M03 A2995 RMK A01 T01571027  RH  028%=      5-min Rain = 0
KBO1 131809Z 30021KT 16/M03 A2995 RMK A01 T01571026  RH  028%=      5-min Rain = 0
KBO1 131810Z 31020KT 16/M03 A2995 RMK A01 T01571026  RH  028%=      5-min Rain = 0
KBO1 131811Z 30023KT 16/M03 A2995 RMK A01 T01571028  RH  028%=      5-min Rain = 0
KBO1 131812Z 30021G26KT 16/M03 A2995 RMK A01 T01551028  RH  028%=      5-min Rain = 0
KBO1 131813Z 30018KT 16/M03 A2995 RMK A01 T01551027  RH  028%=      5-min Rain = 0
KBO1 131814Z 30019KT 16/M03 A2995 RMK A01 T01551025  RH  029%=      5-min Rain = 0
KBO1 131815Z 30018KT 16/M02 A2995 RMK A01 T01561024  RH  029%=      5-min Rain = 0
KBO1 131816Z 30019KT 16/M02 A2995 RMK A01 T01591023  RH  029%=      5-min Rain = 0
KBO1 131817Z 31022G27KT 16/M03 A2995 RMK A01 T01621025  RH  028%=      5-min Rain = 0
KBO1 131818Z 31022G27KT 16/M03 A2996 RMK A01 T01611031  RH  027%=      5-min Rain = 0
KBO1 131819Z 31023G29KT 16/M03 A2995 RMK A01 T01591033  RH  027%=      5-min Rain = 0
KBO1 131820Z 31020G28KT 16/M04 A2995 RMK A01 T01591036  RH  026%=      5-min Rain = 0
KBO1 131821Z 31020KT 16/M04 A2996 RMK A01 T01581036  RH  026%=      5-min Rain = 0
KBO1 131822Z 30019KT 16/M03 A2996 RMK A01 T01601030  RH  027%=      5-min Rain = 0
KBO1 131823Z 30023G29KT 16/M03 A2996 RMK A01 T01611029  RH  027%=      5-min Rain = 0
KBO1 131824Z 30024G29KT 16/M03 A2996 RMK A01 T01621030  RH  027%=      5-min Rain = 0
KBO1 131825Z 30022G27KT 16/M03 A2996 RMK A01 T01621031  RH  026%=      5-min Rain = 0
KBO1 131826Z 30021G28KT 16/M03 A2996 RMK A01 T01621030  RH  027%=      5-min Rain = 0
KBO1 131827Z 30020G25KT 16/M03 A2996 RMK A01 T01621029  RH  027%=      5-min Rain = 0
KBO1 131828Z 30024KT 16/M03 A2996 RMK A01 T01621032  RH  026%=      5-min Rain = 0
KBO1 131829Z 29024KT 16/M03 A2996 RMK A01 T01621032  RH  026%=      5-min Rain = 0
KBO1 131830Z 29022KT 16/M03 A2996 RMK A01 T01621031  RH  027%=      5-min Rain = 0
KBO1 131831Z 29020G25KT 16/M03 A2996 RMK A01 T01621031  RH  026%=      5-min Rain = 0
KBO1 131832Z 30023G28KT 16/M03 A2995 RMK A01 T01621029  RH  027%=      5-min Rain = 0
KBO1 131833Z 30024G30KT 16/M03 A2995 RMK A01 T01621030  RH  027%=      5-min Rain = 0
KBO1 131834Z 30022G27KT 16/M03 A2995 RMK A01 T01611032  RH  027%=      5-min Rain = 0
KBO1 131835Z 30022KT 16/M03 A2995 RMK A01 T01591030  RH  027%=      5-min Rain = 0
KBO1 131836Z 31021KT 16/M03 A2995 RMK A01 T01591030  RH  027%=      5-min Rain = 0
KBO1 131837Z 30021KT 16/M03 A2995 RMK A01 T01591028  RH  027%=      5-min Rain = 0
KBO1 131838Z 31019G24KT 16/M03 A2995 RMK A01 T01591028  RH  028%=      5-min Rain = 0
KBO1 131839Z 30019KT 16/M03 A2995 RMK A01 T01591028  RH  028%=      5-min Rain = 0
KBO1 131840Z 31022KT 16/M03 A2995 RMK A01 T01601028  RH  027%=      5-min Rain = 0
KBO1 131841Z 31022KT 16/M03 A2995 RMK A01 T01611029  RH  027%=      5-min Rain = 0
KBO1 131842Z 31021G26KT 16/M03 A2994 RMK A01 T01601028  RH  027%=      5-min Rain = 0
KBO1 131843Z 30022KT 16/M03 A2994 RMK A01 T01601028  RH  027%=      5-min Rain = 0
KBO1 131844Z 30021KT 16/M03 A2994 RMK A01 T01601027  RH  028%=      5-min Rain = 0
KBO1 131845Z 30021KT 16/M03 A2994 RMK A01 T01601027  RH  027%=      5-min Rain = 0
KBO1 131846Z 30018KT 16/M03 A2994 RMK A01 T01611027  RH  027%=      5-min Rain = 0
KBO1 131847Z 31021KT 16/M03 A2994 RMK A01 T01641027  RH  027%=      5-min Rain = 0
KBO1 131848Z 30019KT 16/M03 A2994 RMK A01 T01641031  RH  026%=      5-min Rain = 0
KBO1 131849Z 30023G29KT 16/M03 A2994 RMK A01 T01631028  RH  027%=      5-min Rain = 0
KBO1 131850Z 29025G30KT 16/M04 A2994 RMK A01 T01631035  RH  026%=      5-min Rain = 0
KBO1 131851Z 30020KT 16/M03 A2994 RMK A01 T01621032  RH  026%=      5-min Rain = 0
KBO1 131852Z 29018G23KT 16/M03 A2994 RMK A01 T01611027  RH  027%=      5-min Rain = 0
KBO1 131853Z 29018KT 16/M02 A2994 RMK A01 T01641023  RH  028%=      5-min Rain = 0
KBO1 131854Z 28016KT 16/M02 A2994 RMK A01 T01641022  RH  028%=      5-min Rain = 0
KBO1 131855Z 30017KT 17/M02 A2994 RMK A01 T01651022  RH  028%=      5-min Rain = 0
KBO1 131856Z 31017KT 17/M02 A2994 RMK A01 T01651022  RH  028%=      5-min Rain = 0
KBO1 131857Z 31020KT 17/M03 A2994 RMK A01 T01661033  RH  025%=      5-min Rain = 0
KBO1 131858Z 30019KT 17/M04 A2994 RMK A01 T01661035  RH  025%=      5-min Rain = 0
KBO1 131859Z 31016KT 17/M03 A2994 RMK A01 T01681033  RH  025%=      5-min Rain = 0
KBO1 131900Z 30015KT 17/M03 A2994 RMK A01 T01701029  RH  026%=      5-min Rain = 0
KBO1 131901Z 30020G28KT 17/M02 A2994 RMK A01 T01721024  RH  026%=      5-min Rain = 0
KBO1 131902Z 30021G26KT 17/M03 A2994 RMK A01 T01711032  RH  025%=      5-min Rain = 0
KBO1 131903Z 29022KT 17/M03 A2994 RMK A01 T01681028  RH  026%=      5-min Rain = 0
KBO1 131904Z 29020KT 17/M03 A2994 RMK A01 T01671027  RH  026%=      5-min Rain = 0
KBO1 131905Z 30018KT 17/M03 A2994 RMK A01 T01651027  RH  027%=      5-min Rain = 0
KBO1 131906Z 29018G27KT 17/M03 A2994 RMK A01 T01651028  RH  027%=      5-min Rain = 0
KBO1 131907Z 29021KT 17/M03 A2994 RMK A01 T01671026  RH  027%=      5-min Rain = 0
KBO1 131908Z 29020KT 17/M03 A2994 RMK A01 T01671029  RH  026%=      5-min Rain = 0
KBO1 131909Z 28022KT 17/M03 A2994 RMK A01 T01661026  RH  027%=      5-min Rain = 0
KBO1 131910Z 28022KT 17/M03 A2994 RMK A01 T01661025  RH  027%=      5-min Rain = 0
KBO1 131911Z 30021G26KT 17/M03 A2994 RMK A01 T01661025  RH  027%=      5-min Rain = 0
KBO1 131912Z 29023KT 17/M02 A2994 RMK A01 T01661023  RH  027%=      5-min Rain = 0
KBO1 131913Z 28017KT 17/M02 A2993 RMK A01 T01661024  RH  027%=      5-min Rain = 0
KBO1 131914Z 28018KT 17/M02 A2993 RMK A01 T01661022  RH  028%=      5-min Rain = 0
KBO1 131915Z 28019KT 17/M02 A2993 RMK A01 T01681022  RH  027%=      5-min Rain = 0
KBO1 131916Z 28023KT 17/M02 A2993 RMK A01 T01671024  RH  027%=      5-min Rain = 0
KBO1 131917Z 28018G23KT 17/M03 A2993 RMK A01 T01651026  RH  027%=      5-min Rain = 0
KBO1 131918Z 27019KT 17/M02 A2993 RMK A01 T01651023  RH  027%=      5-min Rain = 0
KBO1 131919Z 27018KT 17/M02 A2993 RMK A01 T01661023  RH  027%=      5-min Rain = 0
KBO1 131920Z 27019KT 17/M02 A2993 RMK A01 T01671023  RH  027%=      5-min Rain = 0
KBO1 131921Z 27017KT 17/M02 A2993 RMK A01 T01681023  RH  027%=      5-min Rain = 0
KBO1 131922Z 28019KT 17/M02 A2993 RMK A01 T01681024  RH  027%=      5-min Rain = 0
KBO1 131923Z 28019G24KT 17/M03 A2993 RMK A01 T01681026  RH  026%=      5-min Rain = 0
KBO1 131924Z 28020KT 17/M03 A2993 RMK A01 T01671025  RH  027%=      5-min Rain = 0
KBO1 131925Z 28019KT 17/M03 A2993 RMK A01 T01661025  RH  027%=      5-min Rain = 0
KBO1 131926Z 28020KT 17/M03 A2993 RMK A01 T01651025  RH  027%=      5-min Rain = 0
KBO1 131927Z 29017G22KT 16/M03 A2994 RMK A01 T01641026  RH  027%=      5-min Rain = 0
KBO1 131928Z 31016KT 16/M03 A2993 RMK A01 T01641025  RH  027%=      5-min Rain = 0
KBO1 131929Z 29017KT 17/M02 A2993 RMK A01 T01651024  RH  027%=      5-min Rain = 0
KBO1 131930Z 29018KT 17/M03 A2994 RMK A01 T01651027  RH  027%=      5-min Rain = 0
KBO1 131931Z 29017KT 16/M03 A2994 RMK A01 T01641029  RH  027%=      5-min Rain = 0
KBO1 131932Z 29017KT 16/M03 A2994 RMK A01 T01631028  RH  027%=      5-min Rain = 0
KBO1 131933Z 30018KT 16/M03 A2994 RMK A01 T01631029  RH  027%=      5-min Rain = 0
KBO1 131934Z 30016G21KT 16/M03 A2994 RMK A01 T01621029  RH  027%=      5-min Rain = 0
KBO1 131935Z 29016KT 16/M03 A2994 RMK A01 T01621027  RH  027%=      5-min Rain = 0
KBO1 131936Z 30015KT 17/M02 A2994 RMK A01 T01651024  RH  027%=      5-min Rain = 0
KBO1 131937Z 29015G20KT 17/M02 A2994 RMK A01 T01681024  RH  027%=      5-min Rain = 0
KBO1 131938Z 30018KT 17/M03 A2993 RMK A01 T01691027  RH  026%=      5-min Rain = 0
KBO1 131939Z 30015KT 17/M03 A2993 RMK A01 T01661030  RH  026%=      5-min Rain = 0
KBO1 131940Z 30014KT 17/M03 A2993 RMK A01 T01651029  RH  026%=      5-min Rain = 0
KBO1 131941Z 29013KT 17/M02 A2993 RMK A01 T01671024  RH  027%=      5-min Rain = 0
KBO1 131942Z 28013KT 17/M02 A2993 RMK A01 T01681024  RH  027%=      5-min Rain = 0
KBO1 131943Z 29016KT 17/M02 A2993 RMK A01 T01701024  RH  027%=      5-min Rain = 0
KBO1 131944Z 29017G22KT 17/M03 A2993 RMK A01 T01701026  RH  026%=      5-min Rain = 0
KBO1 131945Z 27015KT 17/M03 A2993 RMK A01 T01701026  RH  026%=      5-min Rain = 0
KBO1 131946Z 29014KT 17/M03 A2993 RMK A01 T01691025  RH  026%=      5-min Rain = 0
KBO1 131947Z 30014KT 17/M03 A2993 RMK A01 T01701026  RH  026%=      5-min Rain = 0
KBO1 131948Z 31013KT 17/M03 A2993 RMK A01 T01691026  RH  026%=      5-min Rain = 0
KBO1 131949Z 31012KT 17/M03 A2993 RMK A01 T01681027  RH  026%=      5-min Rain = 0
KBO1 131950Z 30012KT 17/M03 A2993 RMK A01 T01681025  RH  027%=      5-min Rain = 0
KBO1 131951Z 31012KT 17/M03 A2993 RMK A01 T01681025  RH  027%=      5-min Rain = 0
KBO1 131952Z 32012KT 17/M03 A2992 RMK A01 T01671025  RH  027%=      5-min Rain = 0
KBO1 131953Z 32009KT 16/M03 A2993 RMK A01 T01641026  RH  027%=      5-min Rain = 0
KBO1 131954Z 29010KT 16/M03 A2992 RMK A01 T01621026  RH  027%=      5-min Rain = 0
KBO1 131955Z 30013KT 16/M03 A2992 RMK A01 T01631025  RH  028%=      5-min Rain = 0
KBO1 131956Z 29014KT 17/M03 A2992 RMK A01 T01651027  RH  027%=      5-min Rain = 0
KBO1 131957Z 29014KT 17/M03 A2992 RMK A01 T01661025  RH  027%=      5-min Rain = 0
KBO1 131958Z 29017G22KT 17/M02 A2992 RMK A01 T01681024  RH  027%=      5-min Rain = 0
KBO1 131959Z 29016KT 17/M03 A2992 RMK A01 T01681025  RH  027%=      5-min Rain = 0
KBO1 132000Z 30014KT 17/M03 A2992 RMK A01 T01681025  RH  027%=      5-min Rain = 0
KBO1 132001Z 30016KT 17/M03 A2992 RMK A01 T01691025  RH  027%=      5-min Rain = 0
KBO1 132002Z 30017KT 17/M02 A2992 RMK A01 T01701024  RH  026%=      5-min Rain = 0
KBO1 132003Z 29014KT 17/M03 A2992 RMK A01 T01711027  RH  026%=      5-min Rain = 0
KBO1 132004Z 28016KT 17/M03 A2992 RMK A01 T01711026  RH  026%=      5-min Rain = 0
KBO1 132005Z 28015KT 17/M03 A2992 RMK A01 T01711026  RH  026%=      5-min Rain = 0
KBO1 132006Z 28014KT 17/M03 A2992 RMK A01 T01701027  RH  026%=      5-min Rain = 0
KBO1 132007Z 28014G20KT 17/M03 A2992 RMK A01 T01691027  RH  026%=      5-min Rain = 0
KBO1 132008Z 29020KT 17/M03 A2992 RMK A01 T01681028  RH  026%=      5-min Rain = 0
KBO1 132009Z 29020KT 17/M03 A2992 RMK A01 T01671031  RH  026%=      5-min Rain = 0
KBO1 132010Z 29017KT 17/M03 A2992 RMK A01 T01661030  RH  026%=      5-min Rain = 0
KBO1 132011Z 30018KT 17/M03 A2992 RMK A01 T01671030  RH  026%=      5-min Rain = 0
KBO1 132012Z 29018KT 17/M03 A2992 RMK A01 T01681030  RH  025%=      5-min Rain = 0
KBO1 132013Z 30017KT 17/M03 A2992 RMK A01 T01681031  RH  025%=      5-min Rain = 0
KBO1 132014Z 30017KT 17/M03 A2992 RMK A01 T01681031  RH  025%=      5-min Rain = 0
KBO1 132015Z 30017KT 17/M03 A2992 RMK A01 T01681030  RH  026%=      5-min Rain = 0
KBO1 132016Z 29018KT 17/M03 A2992 RMK A01 T01681030  RH  026%=      5-min Rain = 0
KBO1 132017Z 29017KT 17/M03 A2991 RMK A01 T01691030  RH  026%=      5-min Rain = 0
KBO1 132018Z 30017KT 17/M03 A2991 RMK A01 T01701031  RH  025%=      5-min Rain = 0
KBO1 132019Z 29016KT 17/M03 A2991 RMK A01 T01691031  RH  025%=      5-min Rain = 0
KBO1 132020Z 29019KT 17/M03 A2991 RMK A01 T01691030  RH  025%=      5-min Rain = 0
KBO1 132021Z 29016KT 17/M03 A2991 RMK A01 T01701030  RH  025%=      5-min Rain = 0
KBO1 132022Z 29015KT 17/M03 A2991 RMK A01 T01711028  RH  026%=      5-min Rain = 0
KBO1 132023Z 28017KT 17/M03 A2991 RMK A01 T01721028  RH  025%=      5-min Rain = 0
KBO1 132024Z 29015KT 17/M03 A2991 RMK A01 T01731030  RH  025%=      5-min Rain = 0
KBO1 132025Z 29014KT 17/M03 A2991 RMK A01 T01721028  RH  025%=      5-min Rain = 0
KBO1 132026Z 29016KT 17/M03 A2991 RMK A01 T01741030  RH  025%=      5-min Rain = 0
KBO1 132027Z 29015KT 17/M03 A2991 RMK A01 T01731031  RH  025%=      5-min Rain = 0
KBO1 132028Z 30015KT 17/M03 A2991 RMK A01 T01721030  RH  025%=      5-min Rain = 0
KBO1 132029Z 31017KT 17/M03 A2991 RMK A01 T01721030  RH  025%=      5-min Rain = 0
KBO1 132030Z 30013KT 17/M03 A2991 RMK A01 T01731030  RH  025%=      5-min Rain = 0
KBO1 132031Z 30014KT 17/M03 A2991 RMK A01 T01721030  RH  025%=      5-min Rain = 0
KBO1 132032Z 30016KT 17/M03 A2991 RMK A01 T01721031  RH  025%=      5-min Rain = 0
KBO1 132033Z 30018KT 17/M03 A2991 RMK A01 T01711033  RH  025%=      5-min Rain = 0
KBO1 132034Z 30018KT 17/M03 A2991 RMK A01 T01691034  RH  025%=      5-min Rain = 0
KBO1 132035Z 30013KT 17/M03 A2991 RMK A01 T01691033  RH  025%=      5-min Rain = 0
KBO1 132036Z 30014KT 17/M03 A2991 RMK A01 T01691032  RH  025%=      5-min Rain = 0
KBO1 132037Z 30013KT 17/M03 A2991 RMK A01 T01701031  RH  025%=      5-min Rain = 0
KBO1 132038Z 29016KT 17/M03 A2991 RMK A01 T01731029  RH  025%=      5-min Rain = 0
KBO1 132039Z 30016KT 18/M03 A2991 RMK A01 T01751030  RH  025%=      5-min Rain = 0
KBO1 132040Z 31016KT 18/M03 A2991 RMK A01 T01751031  RH  024%=      5-min Rain = 0
KBO1 132041Z 32016KT 17/M03 A299 RMK A01 T01741032  RH  024%=      5-min Rain = 0
KBO1 132042Z 32014KT 17/M03 A299 RMK A01 T01741030  RH  025%=      5-min Rain = 0
KBO1 132043Z 31013KT 17/M03 A299 RMK A01 T01741030  RH  025%=      5-min Rain = 0
KBO1 132044Z 31013KT 17/M03 A299 RMK A01 T01741031  RH  025%=      5-min Rain = 0
KBO1 132045Z 30015KT 18/M03 A299 RMK A01 T01751030  RH  025%=      5-min Rain = 0
KBO1 132046Z 31015KT 18/M03 A2991 RMK A01 T01761033  RH  024%=      5-min Rain = 0
KBO1 132047Z 31014KT 18/M03 A2991 RMK A01 T01761033  RH  024%=      5-min Rain = 0
KBO1 132048Z 32016KT 18/M03 A299 RMK A01 T01781033  RH  024%=      5-min Rain = 0
KBO1 132049Z 31016KT 18/M04 A299 RMK A01 T01781036  RH  023%=      5-min Rain = 0
KBO1 132050Z 31016KT 18/M04 A299 RMK A01 T01771035  RH  023%=      5-min Rain = 0
KBO1 132051Z 31013KT 18/M04 A299 RMK A01 T01771035  RH  023%=      5-min Rain = 0
KBO1 132052Z 31018KT 18/M04 A299 RMK A01 T01771036  RH  023%=      5-min Rain = 0
KBO1 132053Z 31017KT 18/M04 A299 RMK A01 T01771040  RH  023%=      5-min Rain = 0
KBO1 132054Z 32019KT 18/M04 A299 RMK A01 T01761040  RH  023%=      5-min Rain = 0
KBO1 132055Z 31017G22KT 18/M04 A299 RMK A01 T01761041  RH  022%=      5-min Rain = 0
KBO1 132056Z 31016G21KT 18/M04 A299 RMK A01 T01761042  RH  022%=      5-min Rain = 0
KBO1 132057Z 30017KT 18/M04 A299 RMK A01 T01751041  RH  023%=      5-min Rain = 0
KBO1 132058Z 29018KT 18/M04 A299 RMK A01 T01761041  RH  022%=      5-min Rain = 0
KBO1 132059Z 30014KT 18/M04 A299 RMK A01 T01761040  RH  023%=      5-min Rain = 0
KBO1 132100Z 31016KT 18/M04 A299 RMK A01 T01781038  RH  023%=      5-min Rain = 0
KBO1 132101Z 31014KT 18/M04 A299 RMK A01 T01771043  RH  022%=      5-min Rain = 0
KBO1 132102Z 32016KT 18/M04 A299 RMK A01 T01771042  RH  022%=      5-min Rain = 0
KBO1 132103Z 33016KT 18/M04 A299 RMK A01 T01771040  RH  023%=      5-min Rain = 0
KBO1 132104Z 33016KT 18/M04 A299 RMK A01 T01761040  RH  023%=      5-min Rain = 0
KBO1 132105Z 31016KT 18/M04 A299 RMK A01 T01751040  RH  023%=      5-min Rain = 0
KBO1 132106Z 31017KT 18/M04 A299 RMK A01 T01751039  RH  023%=      5-min Rain = 0
KBO1 132107Z 32015KT 18/M04 A299 RMK A01 T01761038  RH  023%=      5-min Rain = 0
KBO1 132108Z 31019KT 18/M04 A299 RMK A01 T01771039  RH  023%=      5-min Rain = 0
KBO1 132109Z 32015KT 18/M04 A299 RMK A01 T01761040  RH  022%=      5-min Rain = 0
KBO1 132110Z 32015G20KT 18/M04 A299 RMK A01 T01761040  RH  023%=      5-min Rain = 0
KBO1 132111Z 32015KT 18/M04 A2989 RMK A01 T01771041  RH  022%=      5-min Rain = 0
KBO1 132112Z 31014KT 18/M04 A2989 RMK A01 T01771039  RH  023%=      5-min Rain = 0
KBO1 132113Z 32017KT 18/M04 A2989 RMK A01 T01781041  RH  022%=      5-min Rain = 0
KBO1 132114Z 31013KT 18/M04 A2989 RMK A01 T01781041  RH  022%=      5-min Rain = 0
KBO1 132115Z 31015KT 18/M04 A299 RMK A01 T01771041  RH  022%=      5-min Rain = 0
KBO1 132116Z 32013KT 18/M04 A299 RMK A01 T01761040  RH  023%=      5-min Rain = 0
KBO1 132117Z 32012KT 18/M04 A299 RMK A01 T01761039  RH  023%=      5-min Rain = 0
KBO1 132118Z 31010KT 18/M04 A299 RMK A01 T01761042  RH  022%=      5-min Rain = 0
KBO1 132119Z 30012KT 18/M04 A299 RMK A01 T01761041  RH  022%=      5-min Rain = 0
KBO1 132120Z 31011KT 18/M04 A299 RMK A01 T01781038  RH  023%=      5-min Rain = 0
KBO1 132121Z 30016KT 18/M04 A299 RMK A01 T01791039  RH  022%=      5-min Rain = 0
KBO1 132122Z 29017KT 18/M04 A299 RMK A01 T01791040  RH  022%=      5-min Rain = 0
KBO1 132123Z 30017KT 18/M04 A299 RMK A01 T01801043  RH  022%=      5-min Rain = 0
KBO1 132124Z 30018KT 18/M05 A299 RMK A01 T01801047  RH  021%=      5-min Rain = 0
KBO1 132125Z 30014KT 18/M04 A299 RMK A01 T01791044  RH  022%=      5-min Rain = 0
KBO1 132126Z 30017KT 18/M04 A299 RMK A01 T01781043  RH  022%=      5-min Rain = 0
KBO1 132127Z 29019G24KT 18/M05 A299 RMK A01 T01791046  RH  021%=      5-min Rain = 0
KBO1 132128Z 29020KT 18/M05 A299 RMK A01 T01801050  RH  020%=      5-min Rain = 0
KBO1 132129Z 30019KT 18/M05 A299 RMK A01 T01801052  RH  020%=      5-min Rain = 0
KBO1 132130Z 30021KT 18/M06 A299 RMK A01 T01791055  RH  020%=      5-min Rain = 0
KBO1 132131Z 30021KT 18/M06 A299 RMK A01 T01781056  RH  020%=      5-min Rain = 0
KBO1 132132Z 30018KT 18/M06 A299 RMK A01 T01771056  RH  020%=      5-min Rain = 0
KBO1 132133Z 30017KT 18/M06 A299 RMK A01 T01761056  RH  020%=      5-min Rain = 0
KBO1 132134Z 31016KT 18/M06 A299 RMK A01 T01771057  RH  020%=      5-min Rain = 0
KBO1 132135Z 29022G27KT 18/M06 A299 RMK A01 T01761058  RH  020%=      5-min Rain = 0
KBO1 132136Z 30023KT 18/M06 A299 RMK A01 T01771061  RH  019%=      5-min Rain = 0
KBO1 132137Z 29024KT 18/M06 A299 RMK A01 T01771063  RH  019%=      5-min Rain = 0
KBO1 132138Z 29021G26KT 18/M06 A299 RMK A01 T01771063  RH  019%=      5-min Rain = 0
KBO1 132139Z 30023KT 18/M06 A299 RMK A01 T01771063  RH  019%=      5-min Rain = 0
KBO1 132140Z 30023KT 18/M06 A299 RMK A01 T01781064  RH  019%=      5-min Rain = 0
KBO1 132141Z 30021KT 18/M06 A299 RMK A01 T01771064  RH  019%=      5-min Rain = 0
KBO1 132142Z 30021KT 18/M07 A299 RMK A01 T01771065  RH  019%=      5-min Rain = 0
KBO1 132143Z 30020KT 18/M07 A299 RMK A01 T01761065  RH  019%=      5-min Rain = 0
KBO1 132144Z 30017KT 18/M07 A299 RMK A01 T01761066  RH  019%=      5-min Rain = 0
KBO1 132145Z 31019KT 18/M07 A2991 RMK A01 T01771065  RH  019%=      5-min Rain = 0
KBO1 132146Z 31018KT 18/M07 A2991 RMK A01 T01771066  RH  019%=      5-min Rain = 0
KBO1 132147Z 31021KT 18/M07 A299 RMK A01 T01771065  RH  019%=      5-min Rain = 0
KBO1 132148Z 31021KT 18/M07 A2991 RMK A01 T01761065  RH  019%=      5-min Rain = 0
KBO1 132149Z 31019KT 18/M06 A2991 RMK A01 T01761062  RH  019%=      5-min Rain = 0
KBO1 132150Z 30016KT 18/M06 A2991 RMK A01 T01761061  RH  019%=      5-min Rain = 0
KBO1 132151Z 30016KT 18/M06 A2991 RMK A01 T01771060  RH  019%=      5-min Rain = 0
KBO1 132152Z 30020KT 18/M06 A2991 RMK A01 T01771063  RH  019%=      5-min Rain = 0
KBO1 132153Z 31021KT 18/M06 A2991 RMK A01 T01761063  RH  019%=      5-min Rain = 0
KBO1 132154Z 30020KT 18/M07 A2991 RMK A01 T01751065  RH  019%=      5-min Rain = 0
KBO1 132155Z 30022G27KT 18/M07 A2991 RMK A01 T01751066  RH  019%=      5-min Rain = 0
KBO1 132156Z 30022KT 18/M07 A2991 RMK A01 T01751065  RH  019%=      5-min Rain = 0
KBO1 132157Z 30016KT 17/M06 A2991 RMK A01 T01741064  RH  019%=      5-min Rain = 0
KBO1 132158Z 29019KT 18/M06 A299 RMK A01 T01751062  RH  019%=      5-min Rain = 0
KBO1 132159Z 30022KT 17/M06 A299 RMK A01 T01741063  RH  019%=      5-min Rain = 0
KBO1 132200Z 31021KT 18/M06 A299 RMK A01 T01751063  RH  019%=      5-min Rain = 0
KBO1 132201Z 30020KT 17/M06 A2991 RMK A01 T01741064  RH  019%=      5-min Rain = 0
KBO1 132202Z 30021KT 17/M07 A2991 RMK A01 T01731066  RH  019%=      5-min Rain = 0
KBO1 132203Z 31022KT 17/M07 A2991 RMK A01 T01731066  RH  019%=      5-min Rain = 0
KBO1 132204Z 31020KT 17/M07 A2991 RMK A01 T01731069  RH  019%=      5-min Rain = 0
KBO1 132205Z 31019KT 17/M07 A2991 RMK A01 T01731070  RH  018%=      5-min Rain = 0
KBO1 132206Z 30018G23KT 17/M07 A2991 RMK A01 T01731070  RH  018%=      5-min Rain = 0
KBO1 132207Z 30022KT 17/M07 A2991 RMK A01 T01731071  RH  018%=      5-min Rain = 0
KBO1 132208Z 30021KT 17/M07 A299 RMK A01 T01731071  RH  018%=      5-min Rain = 0
KBO1 132209Z 30021KT 17/M07 A2991 RMK A01 T01731071  RH  018%=      5-min Rain = 0
KBO1 132210Z 31019KT 17/M07 A2991 RMK A01 T01721072  RH  018%=      5-min Rain = 0
KBO1 132211Z 30019G25KT 17/M07 A2991 RMK A01 T01721070  RH  018%=      5-min Rain = 0
KBO1 132212Z 30021KT 17/M07 A2991 RMK A01 T01721073  RH  018%=      5-min Rain = 0
KBO1 132213Z 30019KT 17/M07 A2991 RMK A01 T01731073  RH  018%=      5-min Rain = 0
KBO1 132214Z 30017KT 17/M07 A2991 RMK A01 T01721074  RH  018%=      5-min Rain = 0
KBO1 132215Z 30017G22KT 17/M07 A2991 RMK A01 T01721073  RH  018%=      5-min Rain = 0
KBO1 132216Z 29021KT 17/M08 A2991 RMK A01 T01721075  RH  018%=      5-min Rain = 0
KBO1 132217Z 29021KT 17/M08 A2991 RMK A01 T01721075  RH  018%=      5-min Rain = 0
KBO1 132218Z 30021KT 17/M08 A2991 RMK A01 T01721076  RH  018%=      5-min Rain = 0
KBO1 132219Z 30017KT 17/M08 A2991 RMK A01 T01711075  RH  018%=      5-min Rain = 0
KBO1 132220Z 30021KT 17/M07 A2991 RMK A01 T01711074  RH  018%=      5-min Rain = 0
KBO1 132221Z 31021G26KT 17/M07 A2991 RMK A01 T01711073  RH  018%=      5-min Rain = 0
KBO1 132222Z 31021KT 17/M07 A2991 RMK A01 T01711074  RH  018%=      5-min Rain = 0
KBO1 132223Z 31019KT 17/M07 A2991 RMK A01 T01711073  RH  018%=      5-min Rain = 0
KBO1 132224Z 30021KT 17/M07 A2991 RMK A01 T01711073  RH  018%=      5-min Rain = 0
KBO1 132225Z 30020KT 17/M07 A2991 RMK A01 T01701074  RH  018%=      5-min Rain = 0
KBO1 132226Z 29019KT 17/M07 A2991 RMK A01 T01701074  RH  018%=      5-min Rain = 0
KBO1 132227Z 30018KT 17/M08 A2991 RMK A01 T01701075  RH  018%=      5-min Rain = 0
KBO1 132228Z 31017KT 17/M07 A2991 RMK A01 T01701074  RH  018%=      5-min Rain = 0
KBO1 132229Z 31017G22KT 17/M07 A2991 RMK A01 T01701074  RH  018%=      5-min Rain = 0
KBO1 132230Z 30015KT 17/M08 A2991 RMK A01 T01701075  RH  018%=      5-min Rain = 0
KBO1 132231Z 30018G23KT 17/M07 A2991 RMK A01 T01701074  RH  018%=      5-min Rain = 0
KBO1 132232Z 31019KT 17/M08 A2991 RMK A01 T01691076  RH  018%=      5-min Rain = 0
KBO1 132233Z 30017KT 17/M08 A2991 RMK A01 T01691077  RH  018%=      5-min Rain = 0
KBO1 132234Z 30016KT 17/M08 A2991 RMK A01 T01691077  RH  018%=      5-min Rain = 0
KBO1 132235Z 31016KT 17/M08 A2991 RMK A01 T01681077  RH  018%=      5-min Rain = 0
KBO1 132236Z 30014KT 17/M08 A2991 RMK A01 T01681078  RH  018%=      5-min Rain = 0
KBO1 132237Z 30015KT 17/M08 A2991 RMK A01 T01681077  RH  018%=      5-min Rain = 0
KBO1 132238Z 30016KT 17/M08 A2991 RMK A01 T01671077  RH  018%=      5-min Rain = 0
KBO1 132239Z 30016KT 17/M08 A2991 RMK A01 T01671078  RH  018%=      5-min Rain = 0
KBO1 132240Z 29017KT 17/M08 A2991 RMK A01 T01671077  RH  018%=      5-min Rain = 0
KBO1 132241Z 29017KT 17/M08 A2991 RMK A01 T01671078  RH  018%=      5-min Rain = 0
KBO1 132242Z 29018KT 17/M08 A2991 RMK A01 T01671079  RH  018%=      5-min Rain = 0
KBO1 132243Z 29022KT 17/M08 A2991 RMK A01 T01661080  RH  018%=      5-min Rain = 0
KBO1 132244Z 29019G24KT 17/M08 A2991 RMK A01 T01661083  RH  017%=      5-min Rain = 0
KBO1 132245Z 29019G24KT 17/M08 A2991 RMK A01 T01651082  RH  018%=      5-min Rain = 0
KBO1 132246Z 29020KT 16/M08 A2991 RMK A01 T01641082  RH  018%=      5-min Rain = 0
KBO1 132247Z 29021KT 16/M08 A2992 RMK A01 T01641082  RH  018%=      5-min Rain = 0
KBO1 132248Z 30022KT 16/M08 A2992 RMK A01 T01641083  RH  018%=      5-min Rain = 0
KBO1 132249Z 30021KT 16/M08 A2991 RMK A01 T01641082  RH  018%=      5-min Rain = 0
KBO1 132250Z 30017KT 16/M08 A2992 RMK A01 T01641082  RH  018%=      5-min Rain = 0
KBO1 132251Z 30017KT 16/M08 A2992 RMK A01 T01631081  RH  018%=      5-min Rain = 0
KBO1 132252Z 30018KT 16/M08 A2992 RMK A01 T01621082  RH  018%=      5-min Rain = 0
KBO1 132253Z 30021KT 16/M08 A2991 RMK A01 T01621083  RH  018%=      5-min Rain = 0
KBO1 132254Z 30017KT 16/M08 A2992 RMK A01 T01621084  RH  018%=      5-min Rain = 0
KBO1 132255Z 30017KT 16/M08 A2992 RMK A01 T01611083  RH  018%=      5-min Rain = 0
KBO1 132256Z 30019G24KT 16/M08 A2992 RMK A01 T01611083  RH  018%=      5-min Rain = 0
KBO1 132257Z 30019KT 16/M08 A2992 RMK A01 T01611083  RH  018%=      5-min Rain = 0
KBO1 132258Z 30018KT 16/M08 A2992 RMK A01 T01611082  RH  018%=      5-min Rain = 0
KBO1 132259Z 30019KT 16/M08 A2992 RMK A01 T01591082  RH  018%=      5-min Rain = 0
KBO1 132300Z 30018G23KT 16/M08 A2992 RMK A01 T01591083  RH  018%=      5-min Rain = 0
KBO1 132301Z 30019KT 16/M08 A2992 RMK A01 T01591083  RH  018%=      5-min Rain = 0
KBO1 132302Z 30020G25KT 16/M08 A2992 RMK A01 T01591084  RH  018%=      5-min Rain = 0
KBO1 132303Z 30020KT 16/M09 A2992 RMK A01 T01591085  RH  018%=      5-min Rain = 0
KBO1 132304Z 30019KT 16/M08 A2992 RMK A01 T01591084  RH  018%=      5-min Rain = 0
KBO1 132305Z 30018KT 16/M08 A2992 RMK A01 T01581083  RH  018%=      5-min Rain = 0
KBO1 132306Z 30017KT 16/M08 A2992 RMK A01 T01581083  RH  018%=      5-min Rain = 0
KBO1 132307Z 30017KT 16/M08 A2992 RMK A01 T01571082  RH  019%=      5-min Rain = 0
KBO1 132308Z 30019G24KT 16/M08 A2992 RMK A01 T01561082  RH  019%=      5-min Rain = 0
KBO1 132309Z 30016KT 16/M08 A2992 RMK A01 T01561083  RH  019%=      5-min Rain = 0
KBO1 132310Z 30015G20KT 16/M08 A2992 RMK A01 T01551081  RH  019%=      5-min Rain = 0
KBO1 132311Z 30018KT 15/M08 A2992 RMK A01 T01541082  RH  019%=      5-min Rain = 0
KBO1 132312Z 30017KT 15/M08 A2992 RMK A01 T01541082  RH  019%=      5-min Rain = 0
KBO1 132313Z 30014KT 15/M08 A2992 RMK A01 T01541081  RH  019%=      5-min Rain = 0
KBO1 132314Z 30014KT 15/M08 A2993 RMK A01 T01531080  RH  019%=      5-min Rain = 0
KBO1 132315Z 30016KT 15/M08 A2993 RMK A01 T01511080  RH  019%=      5-min Rain = 0
KBO1 132316Z 30015KT 15/M08 A2993 RMK A01 T01511080  RH  020%=      5-min Rain = 0
KBO1 132317Z 30015KT 15/M08 A2993 RMK A01 T01511079  RH  020%=      5-min Rain = 0
KBO1 132318Z 30014KT 15/M08 A2993 RMK A01 T01491079  RH  020%=      5-min Rain = 0
KBO1 132319Z 30015KT 15/M08 A2993 RMK A01 T01481079  RH  020%=      5-min Rain = 0
KBO1 132320Z 30015KT 15/M08 A2993 RMK A01 T01471079  RH  020%=      5-min Rain = 0
KBO1 132321Z 30015KT 15/M08 A2993 RMK A01 T01471078  RH  020%=      5-min Rain = 0
KBO1 132322Z 30015KT 15/M08 A2993 RMK A01 T01461079  RH  020%=      5-min Rain = 0
KBO1 132323Z 30015KT 15/M08 A2993 RMK A01 T01461078  RH  020%=      5-min Rain = 0
KBO1 132324Z 30015KT 15/M08 A2993 RMK A01 T01461079  RH  020%=      5-min Rain = 0
KBO1 132325Z 30015KT 15/M08 A2993 RMK A01 T01461078  RH  020%=      5-min Rain = 0
KBO1 132326Z 30015KT 15/M08 A2993 RMK A01 T01451078  RH  021%=      5-min Rain = 0
KBO1 132327Z 30015KT 14/M08 A2993 RMK A01 T01441078  RH  021%=      5-min Rain = 0
KBO1 132328Z 30014KT 14/M08 A2993 RMK A01 T01441078  RH  021%=      5-min Rain = 0
KBO1 132329Z 30014KT 14/M08 A2993 RMK A01 T01431078  RH  021%=      5-min Rain = 0
KBO1 132330Z 29012KT 14/M08 A2993 RMK A01 T01411078  RH  021%=      5-min Rain = 0
KBO1 132331Z 30014G19KT 14/M08 A2993 RMK A01 T01391078  RH  021%=      5-min Rain = 0
KBO1 132332Z 29015KT 14/M08 A2993 RMK A01 T01381079  RH  021%=      5-min Rain = 0
KBO1 132333Z 29015KT 14/M08 A2993 RMK A01 T01401080  RH  021%=      5-min Rain = 0
KBO1 132334Z 29014KT 14/M08 A2993 RMK A01 T01411079  RH  021%=      5-min Rain = 0
KBO1 132335Z 29014KT 14/M08 A2993 RMK A01 T01401078  RH  021%=      5-min Rain = 0
KBO1 132336Z 29014KT 14/M08 A2993 RMK A01 T01381078  RH  022%=      5-min Rain = 0
KBO1 132337Z 29013KT 14/M08 A2993 RMK A01 T01371078  RH  022%=      5-min Rain = 0
KBO1 132338Z 29015KT 14/M08 A2993 RMK A01 T01361078  RH  022%=      5-min Rain = 0
KBO1 132339Z 29013KT 14/M08 A2993 RMK A01 T01351078  RH  022%=      5-min Rain = 0
KBO1 132340Z 29013KT 13/M08 A2993 RMK A01 T01331078  RH  022%=      5-min Rain = 0
KBO1 132341Z 29013KT 13/M08 A2993 RMK A01 T01311078  RH  023%=      5-min Rain = 0
KBO1 132342Z 29013KT 13/M08 A2993 RMK A01 T01301078  RH  023%=      5-min Rain = 0
KBO1 132343Z 29013KT 13/M08 A2993 RMK A01 T01301077  RH  023%=      5-min Rain = 0
KBO1 132344Z 29013KT 13/M08 A2993 RMK A01 T01291077  RH  023%=      5-min Rain = 0
KBO1 132345Z 29012KT 13/M08 A2993 RMK A01 T01281077  RH  023%=      5-min Rain = 0
KBO1 132346Z 29013KT 13/M08 A2993 RMK A01 T01271077  RH  023%=      5-min Rain = 0
KBO1 132347Z 29013KT 13/M08 A2993 RMK A01 T01251078  RH  024%=      5-min Rain = 0
KBO1 132348Z 29013KT 12/M08 A2993 RMK A01 T01241078  RH  024%=      5-min Rain = 0
KBO1 132349Z 29012KT 12/M08 A2993 RMK A01 T01241077  RH  024%=      5-min Rain = 0
KBO1 132350Z 29012KT 12/M08 A2993 RMK A01 T01241077  RH  024%=      5-min Rain = 0
KBO1 132351Z 29012KT 12/M08 A2993 RMK A01 T01231077  RH  024%=      5-min Rain = 0
KBO1 132352Z 29012KT 12/M08 A2993 RMK A01 T01211078  RH  024%=      5-min Rain = 0
KBO1 132353Z 29013KT 12/M08 A2993 RMK A01 T01201077  RH  024%=      5-min Rain = 0
KBO1 132354Z 29014KT 12/M08 A2993 RMK A01 T01211077  RH  024%=      5-min Rain = 0
KBO1 132355Z 29013KT 12/M08 A2993 RMK A01 T01221078  RH  024%=      5-min Rain = 0
KBO1 132356Z 29013KT 12/M08 A2993 RMK A01 T01221077  RH  024%=      5-min Rain = 0
KBO1 132357Z 29013KT 12/M08 A2993 RMK A01 T01221078  RH  024%=      5-min Rain = 0
KBO1 132358Z 29013KT 12/M08 A2993 RMK A01 T01221078  RH  024%=      5-min Rain = 0
KBO1 132359Z 29013KT 12/M08 A2993 RMK A01 T01211077  RH  024%=      5-min Rain = 0
KBO1 140000Z 29012KT 12/M08 A2993 RMK A01 T01211077  RH  024%=      5-min Rain = 0
KBO1 140001Z 29013KT 12/M08 A2993 RMK A01 T01201077  RH  024%=      5-min Rain = 0
KBO1 140002Z 29014KT 12/M08 A2993 RMK A01 T01201077  RH  024%=      5-min Rain = 0
KBO1 140003Z 29013KT 12/M08 A2993 RMK A01 T01201077  RH  024%=      5-min Rain = 0
KBO1 140004Z 29013KT 12/M08 A2993 RMK A01 T01211077  RH  024%=      5-min Rain = 0
KBO1 140005Z 29012KT 12/M08 A2993 RMK A01 T01201077  RH  024%=      5-min Rain = 0
KBO1 140006Z 29012KT 12/M08 A2993 RMK A01 T01191077  RH  025%=      5-min Rain = 0
KBO1 140007Z 29012KT 12/M08 A2992 RMK A01 T01181077  RH  025%=      5-min Rain = 0
KBO1 140008Z 29012KT 12/M08 A2992 RMK A01 T01171076  RH  025%=      5-min Rain = 0
KBO1 140009Z 29011KT 12/M08 A2992 RMK A01 T01151077  RH  025%=      5-min Rain = 0
KBO1 140010Z 29011KT 11/M08 A2992 RMK A01 T01141076  RH  026%=      5-min Rain = 0
KBO1 140011Z 28012KT 11/M08 A2992 RMK A01 T01131077  RH  026%=      5-min Rain = 0
KBO1 140012Z 28011KT 11/M08 A2992 RMK A01 T01121076  RH  026%=      5-min Rain = 0
KBO1 140013Z 28011KT 11/M08 A2992 RMK A01 T01121076  RH  026%=      5-min Rain = 0
KBO1 140014Z 29011KT 11/M08 A2993 RMK A01 T01111077  RH  026%=      5-min Rain = 0
KBO1 140015Z 29011KT 11/M08 A2993 RMK A01 T01101076  RH  026%=      5-min Rain = 0
KBO1 140016Z 29012KT 11/M08 A2993 RMK A01 T01091076  RH  026%=      5-min Rain = 0
KBO1 140017Z 29012KT 11/M08 A2993 RMK A01 T01091076  RH  026%=      5-min Rain = 0
KBO1 140018Z 29012KT 11/M08 A2993 RMK A01 T01101076  RH  026%=      5-min Rain = 0
KBO1 140019Z 29012KT 11/M08 A2993 RMK A01 T01101075  RH  027%=      5-min Rain = 0
KBO1 140020Z 29011KT 11/M08 A2993 RMK A01 T01091076  RH  027%=      5-min Rain = 0
KBO1 140021Z 29012KT 11/M08 A2993 RMK A01 T01081075  RH  027%=      5-min Rain = 0
KBO1 140022Z 29011KT 11/M08 A2993 RMK A01 T01071075  RH  027%=      5-min Rain = 0
KBO1 140023Z 29011KT 11/M08 A2993 RMK A01 T01061075  RH  027%=      5-min Rain = 0
KBO1 140024Z 29012KT 11/M08 A2994 RMK A01 T01051075  RH  028%=      5-min Rain = 0
KBO1 140025Z 29012KT 11/M08 A2994 RMK A01 T01051075  RH  028%=      5-min Rain = 0
KBO1 140026Z 29012KT 11/M07 A2994 RMK A01 T01051074  RH  028%=      5-min Rain = 0
KBO1 140027Z 29012KT 11/M07 A2994 RMK A01 T01051074  RH  028%=      5-min Rain = 0
KBO1 140028Z 29011KT 10/M07 A2994 RMK A01 T01041074  RH  028%=      5-min Rain = 0
KBO1 140029Z 29012KT 10/M07 A2994 RMK A01 T01041074  RH  028%=      5-min Rain = 0
KBO1 140030Z 29012KT 10/M07 A2995 RMK A01 T01041073  RH  028%=      5-min Rain = 0
KBO1 140031Z 29012KT 10/M07 A2995 RMK A01 T01041073  RH  028%=      5-min Rain = 0
KBO1 140032Z 29012KT 10/M07 A2995 RMK A01 T01041073  RH  028%=      5-min Rain = 0
KBO1 140033Z 29012KT 11/M07 A2995 RMK A01 T01051073  RH  028%=      5-min Rain = 0
KBO1 140034Z 29012KT 11/M07 A2995 RMK A01 T01051073  RH  028%=      5-min Rain = 0
KBO1 140035Z 29013KT 11/M07 A2995 RMK A01 T01051073  RH  028%=      5-min Rain = 0
KBO1 140036Z 29013KT 11/M07 A2995 RMK A01 T01061073  RH  028%=      5-min Rain = 0
KBO1 140037Z 29013KT 11/M07 A2995 RMK A01 T01081073  RH  027%=      5-min Rain = 0
KBO1 140038Z 29014KT 11/M07 A2995 RMK A01 T01081073  RH  027%=      5-min Rain = 0
KBO1 140039Z 29013KT 11/M07 A2995 RMK A01 T01101073  RH  027%=      5-min Rain = 0
KBO1 140040Z 29013KT 11/M07 A2995 RMK A01 T01101073  RH  027%=      5-min Rain = 0
KBO1 140041Z 29013KT 11/M07 A2995 RMK A01 T01101073  RH  027%=      5-min Rain = 0
KBO1 140042Z 29012KT 11/M07 A2995 RMK A01 T01101073  RH  027%=      5-min Rain = 0
KBO1 140043Z 29013KT 11/M07 A2995 RMK A01 T01091073  RH  027%=      5-min Rain = 0
KBO1 140044Z 29013KT 11/M07 A2995 RMK A01 T01101073  RH  027%=      5-min Rain = 0
KBO1 140045Z 29013KT 11/M07 A2995 RMK A01 T01101073  RH  027%=      5-min Rain = 0
KBO1 140046Z 29014KT 11/M07 A2995 RMK A01 T01111073  RH  027%=      5-min Rain = 0
KBO1 140047Z 29014KT 11/M07 A2996 RMK A01 T01121073  RH  026%=      5-min Rain = 0
KBO1 140048Z 29015KT 11/M07 A2996 RMK A01 T01141074  RH  026%=      5-min Rain = 0
KBO1 140049Z 29014KT 12/M07 A2996 RMK A01 T01151074  RH  026%=      5-min Rain = 0
KBO1 140050Z 29014KT 12/M07 A2996 RMK A01 T01161074  RH  026%=      5-min Rain = 0
KBO1 140051Z 29014KT 12/M07 A2996 RMK A01 T01161074  RH  026%=      5-min Rain = 0
KBO1 140052Z 29013KT 12/M07 A2996 RMK A01 T01151074  RH  026%=      5-min Rain = 0
KBO1 140053Z 29013KT 11/M07 A2996 RMK A01 T01141074  RH  026%=      5-min Rain = 0
KBO1 140054Z 29013KT 11/M08 A2996 RMK A01 T01131075  RH  026%=      5-min Rain = 0
KBO1 140055Z 29014KT 11/M07 A2996 RMK A01 T01131074  RH  026%=      5-min Rain = 0
KBO1 140056Z 29014KT 11/M07 A2996 RMK A01 T01141074  RH  026%=      5-min Rain = 0
KBO1 140057Z 29013KT 12/M08 A2996 RMK A01 T01151075  RH  026%=      5-min Rain = 0
KBO1 140058Z 29013KT 12/M08 A2996 RMK A01 T01151075  RH  026%=      5-min Rain = 0
KBO1 140059Z 29012KT 12/M08 A2996 RMK A01 T01151075  RH  026%=      5-min Rain = 0
KBO1 140100Z 29014KT 11/M08 A2996 RMK A01 T01141075  RH  026%=      5-min Rain = 0
KBO1 140101Z 29013KT 11/M08 A2996 RMK A01 T01141075  RH  026%=      5-min Rain = 0
KBO1 140102Z 29012KT 12/M08 A2996 RMK A01 T01151075  RH  026%=      5-min Rain = 0
KBO1 140103Z 29012KT 11/M08 A2996 RMK A01 T01141075  RH  026%=      5-min Rain = 0
KBO1 140104Z 29012KT 11/M08 A2996 RMK A01 T01131075  RH  026%=      5-min Rain = 0
KBO1 140105Z 29013KT 11/M08 A2996 RMK A01 T01131075  RH  026%=      5-min Rain = 0
KBO1 140106Z 29012KT 11/M08 A2996 RMK A01 T01131075  RH  026%=      5-min Rain = 0
KBO1 140107Z 29012KT 11/M08 A2996 RMK A01 T01131075  RH  026%=      5-min Rain = 0
KBO1 140108Z 29011KT 11/M08 A2996 RMK A01 T01131075  RH  026%=      5-min Rain = 0
KBO1 140109Z 29011KT 11/M08 A2997 RMK A01 T01131075  RH  026%=      5-min Rain = 0
KBO1 140110Z 29011KT 11/M08 A2997 RMK A01 T01131075  RH  026%=      5-min Rain = 0
KBO1 140111Z 29012KT 11/M08 A2997 RMK A01 T01121075  RH  026%=      5-min Rain = 0
KBO1 140112Z 29011KT 11/M08 A2997 RMK A01 T01121076  RH  026%=      5-min Rain = 0
KBO1 140113Z 29011KT 11/M08 A2997 RMK A01 T01131076  RH  026%=      5-min Rain = 0
KBO1 140114Z 29012KT 11/M08 A2997 RMK A01 T01131076  RH  026%=      5-min Rain = 0
KBO1 140115Z 29011KT 11/M08 A2997 RMK A01 T01131076  RH  026%=      5-min Rain = 0
KBO1 140116Z 29011KT 11/M08 A2997 RMK A01 T01141075  RH  026%=      5-min Rain = 0
KBO1 140117Z 29011KT 11/M08 A2997 RMK A01 T01131075  RH  026%=      5-min Rain = 0
KBO1 140118Z 29010KT 11/M08 A2998 RMK A01 T01121075  RH  026%=      5-min Rain = 0
KBO1 140119Z 28009KT 11/M08 A2997 RMK A01 T01101075  RH  027%=      5-min Rain = 0
KBO1 140120Z 28009KT 11/M08 A2997 RMK A01 T01071075  RH  027%=      5-min Rain = 0
KBO1 140121Z 28009KT 10/M08 A2997 RMK A01 T01041076  RH  028%=      5-min Rain = 0
KBO1 140122Z 28009KT 10/M08 A2997 RMK A01 T01011075  RH  028%=      5-min Rain = 0
KBO1 140123Z 28009KT 10/M08 A2997 RMK A01 T00991075  RH  029%=      5-min Rain = 0
KBO1 140124Z 28009KT 10/M08 A2997 RMK A01 T00981075  RH  029%=      5-min Rain = 0
KBO1 140125Z 28009KT 10/M08 A2997 RMK A01 T00981076  RH  029%=      5-min Rain = 0
KBO1 140126Z 28010KT 10/M08 A2997 RMK A01 T00981075  RH  029%=      5-min Rain = 0
KBO1 140127Z 28010KT 10/M08 A2997 RMK A01 T00981075  RH  029%=      5-min Rain = 0
KBO1 140128Z 29010KT 10/M08 A2997 RMK A01 T00971075  RH  029%=      5-min Rain = 0
KBO1 140129Z 29009KT 10/M08 A2997 RMK A01 T00981075  RH  029%=      5-min Rain = 0
KBO1 140130Z 29009KT 10/M07 A2997 RMK A01 T00991074  RH  029%=      5-min Rain = 0
KBO1 140131Z 29009KT 10/M07 A2997 RMK A01 T00981074  RH  029%=      5-min Rain = 0
KBO1 140132Z 29009KT 10/M07 A2997 RMK A01 T00981074  RH  029%=      5-min Rain = 0
KBO1 140133Z 28009KT 10/M07 A2997 RMK A01 T00961074  RH  029%=      5-min Rain = 0
KBO1 140134Z 28010KT 10/M07 A2997 RMK A01 T00951074  RH  030%=      5-min Rain = 0
KBO1 140135Z 28009KT 09/M07 A2997 RMK A01 T00921074  RH  030%=      5-min Rain = 0
KBO1 140136Z 28009KT 09/M07 A2997 RMK A01 T00901074  RH  031%=      5-min Rain = 0
KBO1 140137Z 28009KT 09/M07 A2997 RMK A01 T00881073  RH  031%=      5-min Rain = 0
KBO1 140138Z 28009KT 09/M07 A2997 RMK A01 T00861074  RH  032%=      5-min Rain = 0
KBO1 140139Z 28009KT 09/M07 A2997 RMK A01 T00851074  RH  032%=      5-min Rain = 0
KBO1 140140Z 28009KT 09/M07 A2997 RMK A01 T00851074  RH  032%=      5-min Rain = 0
KBO1 140141Z 28009KT 09/M07 A2997 RMK A01 T00861073  RH  032%=      5-min Rain = 0
KBO1 140142Z 28009KT 09/M07 A2997 RMK A01 T00861073  RH  032%=      5-min Rain = 0
KBO1 140143Z 28009KT 09/M07 A2997 RMK A01 T00871072  RH  032%=      5-min Rain = 0
KBO1 140144Z 28009KT 09/M07 A2997 RMK A01 T00881072  RH  031%=      5-min Rain = 0
KBO1 140145Z 28009KT 09/M07 A2997 RMK A01 T00891072  RH  031%=      5-min Rain = 0
KBO1 140146Z 29009KT 09/M07 A2997 RMK A01 T00901071  RH  031%=      5-min Rain = 0
KBO1 140147Z 28009KT 09/M07 A2998 RMK A01 T00901071  RH  031%=      5-min Rain = 0
KBO1 140148Z 29009KT 09/M07 A2998 RMK A01 T00901071  RH  031%=      5-min Rain = 0
KBO1 140149Z 28008KT 09/M07 A2998 RMK A01 T00911070  RH  031%=      5-min Rain = 0
KBO1 140150Z 29008KT 09/M07 A2998 RMK A01 T00921069  RH  031%=      5-min Rain = 0
KBO1 140151Z 29008KT 09/M07 A2997 RMK A01 T00921069  RH  031%=      5-min Rain = 0
KBO1 140152Z 28008KT 09/M07 A2997 RMK A01 T00931068  RH  032%=      5-min Rain = 0
KBO1 140153Z 28008KT 09/M07 A2997 RMK A01 T00941068  RH  031%=      5-min Rain = 0
KBO1 140154Z 29008KT 10/M07 A2997 RMK A01 T00961067  RH  031%=      5-min Rain = 0
KBO1 140155Z 29009KT 10/M07 A2998 RMK A01 T00981066  RH  031%=      5-min Rain = 0
KBO1 140156Z 29010KT 10/M07 A2998 RMK A01 T00991066  RH  031%=      5-min Rain = 0
KBO1 140157Z 29010KT 10/M07 A2998 RMK A01 T01011066  RH  030%=      5-min Rain = 0
KBO1 140158Z 29010KT 10/M07 A2997 RMK A01 T01031066  RH  030%=      5-min Rain = 0
KBO1 140159Z 29010KT 11/M07 A2997 RMK A01 T01061066  RH  029%=      5-min Rain = 0
KBO1 140200Z 30012KT 11/M07 A2997 RMK A01 T01091067  RH  029%=      5-min Rain = 0
KBO1 140201Z 29011KT 11/M07 A2997 RMK A01 T01111068  RH  028%=      5-min Rain = 0
KBO1 140202Z 29011KT 11/M07 A2997 RMK A01 T01131068  RH  028%=      5-min Rain = 0
KBO1 140203Z 29011KT 11/M07 A2997 RMK A01 T01141068  RH  027%=      5-min Rain = 0
KBO1 140204Z 29011KT 11/M07 A2996 RMK A01 T01141068  RH  027%=      5-min Rain = 0
KBO1 140205Z 29009KT 11/M07 A2996 RMK A01 T01141068  RH  027%=      5-min Rain = 0
KBO1 140206Z 29010KT 11/M07 A2995 RMK A01 T01121069  RH  027%=      5-min Rain = 0
KBO1 140207Z 29009KT 11/M07 A2995 RMK A01 T01121069  RH  027%=      5-min Rain = 0
KBO1 140208Z 29010KT 11/M07 A2995 RMK A01 T01111070  RH  027%=      5-min Rain = 0
KBO1 140209Z 29010KT 11/M07 A2996 RMK A01 T01101070  RH  028%=      5-min Rain = 0
KBO1 140210Z 29010KT 11/M07 A2996 RMK A01 T01091070  RH  028%=      5-min Rain = 0
KBO1 140211Z 30011KT 11/M07 A2996 RMK A01 T01081069  RH  028%=      5-min Rain = 0
KBO1 140212Z 29011KT 11/M07 A2997 RMK A01 T01071069  RH  028%=      5-min Rain = 0
KBO1 140213Z 29012KT 11/M07 A2997 RMK A01 T01061069  RH  029%=      5-min Rain = 0
KBO1 140214Z 29012KT 11/M07 A2998 RMK A01 T01051068  RH  029%=      5-min Rain = 0
KBO1 140215Z 29011KT 11/M07 A2998 RMK A01 T01061068  RH  029%=      5-min Rain = 0
KBO1 140216Z 29012KT 11/M07 A2998 RMK A01 T01051068  RH  029%=      5-min Rain = 0
KBO1 140217Z 29011KT 11/M07 A2998 RMK A01 T01061068  RH  029%=      5-min Rain = 0
KBO1 140218Z 29011KT 11/M07 A2998 RMK A01 T01051068  RH  029%=      5-min Rain = 0
KBO1 140219Z 29010KT 11/M07 A2998 RMK A01 T01051068  RH  029%=      5-min Rain = 0
KBO1 140220Z 29010KT 10/M07 A2998 RMK A01 T01041068  RH  029%=      5-min Rain = 0
KBO1 140221Z 29011KT 10/M07 A2998 RMK A01 T01041068  RH  029%=      5-min Rain = 0
KBO1 140222Z 29011KT 10/M07 A2999 RMK A01 T01031067  RH  030%=      5-min Rain = 0
KBO1 140223Z 29010KT 10/M07 A2999 RMK A01 T01011067  RH  030%=      5-min Rain = 0
KBO1 140224Z 29010KT 10/M07 A2999 RMK A01 T01011067  RH  030%=      5-min Rain = 0
KBO1 140225Z 28010KT 10/M07 A2999 RMK A01 T01001068  RH  030%=      5-min Rain = 0
KBO1 140226Z 28009KT 10/M07 A2999 RMK A01 T00981067  RH  030%=      5-min Rain = 0
KBO1 140227Z 28009KT 10/M07 A2999 RMK A01 T00961067  RH  031%=      5-min Rain = 0
KBO1 140228Z 29010KT 10/M07 A2999 RMK A01 T00951067  RH  031%=      5-min Rain = 0
KBO1 140229Z 29010KT 09/M07 A2999 RMK A01 T00941067  RH  031%=      5-min Rain = 0
KBO1 140230Z 29010KT 09/M07 A2999 RMK A01 T00931067  RH  032%=      5-min Rain = 0
KBO1 140231Z 29010KT 09/M07 A2999 RMK A01 T00931066  RH  032%=      5-min Rain = 0
KBO1 140232Z 30010KT 09/M07 A2999 RMK A01 T00931067  RH  032%=      5-min Rain = 0
KBO1 140233Z 29011KT 09/M07 A2998 RMK A01 T00941067  RH  031%=      5-min Rain = 0
KBO1 140234Z 30011KT 10/M07 A2998 RMK A01 T00951067  RH  031%=      5-min Rain = 0
KBO1 140235Z 30011KT 10/M07 A2998 RMK A01 T00981067  RH  031%=      5-min Rain = 0
KBO1 140236Z 30012KT 10/M07 A2998 RMK A01 T00991068  RH  030%=      5-min Rain = 0
KBO1 140237Z 30012KT 10/M07 A2998 RMK A01 T01001068  RH  030%=      5-min Rain = 0
KBO1 140238Z 30014KT 10/M07 A2998 RMK A01 T01021068  RH  030%=      5-min Rain = 0
KBO1 140239Z 30013KT 10/M07 A2998 RMK A01 T01041067  RH  029%=      5-min Rain = 0
KBO1 140240Z 30013KT 11/M07 A2999 RMK A01 T01051068  RH  029%=      5-min Rain = 0
KBO1 140241Z 30013KT 10/M07 A2999 RMK A01 T01041068  RH  029%=      5-min Rain = 0
KBO1 140242Z 30012KT 10/M07 A2999 RMK A01 T01041069  RH  029%=      5-min Rain = 0
KBO1 140243Z 29012KT 10/M07 A2999 RMK A01 T01041068  RH  029%=      5-min Rain = 0
KBO1 140244Z 30013KT 10/M07 A2999 RMK A01 T01031069  RH  029%=      5-min Rain = 0
KBO1 140245Z 30014KT 10/M07 A2999 RMK A01 T01031069  RH  029%=      5-min Rain = 0
KBO1 140246Z 29013KT 10/M07 A2999 RMK A01 T01041068  RH  029%=      5-min Rain = 0
KBO1 140247Z 30013KT 10/M07 A2999 RMK A01 T01041068  RH  029%=      5-min Rain = 0
KBO1 140248Z 30013KT 10/M07 A2999 RMK A01 T01041068  RH  029%=      5-min Rain = 0
KBO1 140249Z 30012KT 10/M07 A2999 RMK A01 T01041069  RH  029%=      5-min Rain = 0
KBO1 140250Z 29012KT 10/M07 A2999 RMK A01 T01031069  RH  029%=      5-min Rain = 0
KBO1 140251Z 29011KT 10/M07 A2999 RMK A01 T01021068  RH  029%=      5-min Rain = 0
KBO1 140252Z 30012KT 10/M07 A2999 RMK A01 T01011068  RH  030%=      5-min Rain = 0
KBO1 140253Z 30013KT 10/M07 A2999 RMK A01 T01011069  RH  030%=      5-min Rain = 0
KBO1 140254Z 29013KT 10/M07 A2999 RMK A01 T01021068  RH  030%=      5-min Rain = 0
KBO1 140255Z 29013KT 10/M07 A2999 RMK A01 T01011068  RH  030%=      5-min Rain = 0
KBO1 140256Z 29012KT 10/M07 A2999 RMK A01 T01011068  RH  030%=      5-min Rain = 0
KBO1 140257Z 30013KT 10/M07 A2999 RMK A01 T01001068  RH  030%=      5-min Rain = 0
KBO1 140258Z 29012KT 10/M07 A2999 RMK A01 T01001068  RH  030%=      5-min Rain = 0
KBO1 140259Z 29013KT 10/M07 A2999 RMK A01 T00991068  RH  030%=      5-min Rain = 0
KBO1 140300Z 30013KT 10/M07 A2998 RMK A01 T00991068  RH  030%=      5-min Rain = 0
KBO1 140301Z 30013KT 10/M07 A2998 RMK A01 T01001069  RH  030%=      5-min Rain = 0
KBO1 140302Z 30012KT 10/M07 A2998 RMK A01 T01001069  RH  030%=      5-min Rain = 0
KBO1 140303Z 30013KT 10/M07 A2998 RMK A01 T00991068  RH  030%=      5-min Rain = 0
KBO1 140304Z 30013KT 10/M07 A2998 RMK A01 T00981069  RH  030%=      5-min Rain = 0
KBO1 140305Z 30013KT 10/M07 A2999 RMK A01 T00981069  RH  030%=      5-min Rain = 0
KBO1 140306Z 29012KT 10/M07 A2999 RMK A01 T00981068  RH  030%=      5-min Rain = 0
KBO1 140307Z 29013KT 10/M07 A2999 RMK A01 T00981068  RH  030%=      5-min Rain = 0
KBO1 140308Z 29013KT 10/M07 A2999 RMK A01 T00971068  RH  031%=      5-min Rain = 0
KBO1 140309Z 29012KT 10/M07 A2998 RMK A01 T00951068  RH  031%=      5-min Rain = 0
KBO1 140310Z 29012KT 09/M07 A2998 RMK A01 T00941069  RH  031%=      5-min Rain = 0
KBO1 140311Z 29011KT 09/M07 A2998 RMK A01 T00931069  RH  031%=      5-min Rain = 0
KBO1 140312Z 29011KT 09/M07 A2998 RMK A01 T00921069  RH  031%=      5-min Rain = 0
KBO1 140313Z 29011KT 09/M07 A2998 RMK A01 T00901069  RH  032%=      5-min Rain = 0
KBO1 140314Z 29011KT 09/M07 A2998 RMK A01 T00891069  RH  032%=      5-min Rain = 0
KBO1 140315Z 29011KT 09/M07 A2998 RMK A01 T00881069  RH  032%=      5-min Rain = 0
KBO1 140316Z 29010KT 09/M07 A2998 RMK A01 T00861069  RH  033%=      5-min Rain = 0
KBO1 140317Z 29010KT 09/M07 A2998 RMK A01 T00851069  RH  033%=      5-min Rain = 0
KBO1 140318Z 29010KT 08/M07 A2998 RMK A01 T00841069  RH  033%=      5-min Rain = 0
KBO1 140319Z 30010KT 08/M07 A2998 RMK A01 T00821069  RH  033%=      5-min Rain = 0
KBO1 140320Z 30010KT 08/M07 A2998 RMK A01 T00811069  RH  034%=      5-min Rain = 0
KBO1 140321Z 30010KT 08/M07 A2998 RMK A01 T00801069  RH  034%=      5-min Rain = 0
KBO1 140322Z 30010KT 08/M07 A2998 RMK A01 T00801069  RH  034%=      5-min Rain = 0
KBO1 140323Z 30011KT 08/M07 A2998 RMK A01 T00801069  RH  034%=      5-min Rain = 0
KBO1 140324Z 30010KT 08/M07 A2998 RMK A01 T00791069  RH  034%=      5-min Rain = 0
KBO1 140325Z 30011KT 08/M07 A2998 RMK A01 T00791069  RH  034%=      5-min Rain = 0
KBO1 140326Z 30010KT 08/M07 A2998 RMK A01 T00791068  RH  035%=      5-min Rain = 0
KBO1 140327Z 30010KT 08/M07 A2998 RMK A01 T00781069  RH  035%=      5-min Rain = 0
KBO1 140328Z 30010KT 08/M07 A2998 RMK A01 T00771069  RH  035%=      5-min Rain = 0
KBO1 140329Z 30010KT 08/M07 A2998 RMK A01 T00771069  RH  035%=      5-min Rain = 0
KBO1 140330Z 31010KT 08/M07 A2998 RMK A01 T00761069  RH  035%=      5-min Rain = 0
KBO1 140331Z 31010KT 08/M07 A2998 RMK A01 T00751069  RH  035%=      5-min Rain = 0
KBO1 140332Z 31010KT 08/M07 A2998 RMK A01 T00751069  RH  035%=      5-min Rain = 0
KBO1 140333Z 31010KT 07/M07 A2998 RMK A01 T00741069  RH  035%=      5-min Rain = 0
KBO1 140334Z 30010KT 07/M07 A2998 RMK A01 T00731069  RH  036%=      5-min Rain = 0
KBO1 140335Z 31010KT 07/M07 A2998 RMK A01 T00731069  RH  036%=      5-min Rain = 0
KBO1 140336Z 30010KT 07/M07 A2998 RMK A01 T00731069  RH  036%=      5-min Rain = 0
KBO1 140337Z 30010KT 07/M07 A2998 RMK A01 T00721069  RH  036%=      5-min Rain = 0
KBO1 140338Z 30010KT 07/M07 A2997 RMK A01 T00721068  RH  036%=      5-min Rain = 0
KBO1 140339Z 31009KT 07/M07 A2997 RMK A01 T00711069  RH  036%=      5-min Rain = 0
KBO1 140340Z 31009KT 07/M07 A2997 RMK A01 T00711069  RH  036%=      5-min Rain = 0
KBO1 140341Z 31009KT 07/M07 A2997 RMK A01 T00711069  RH  036%=      5-min Rain = 0
KBO1 140342Z 31009KT 07/M07 A2997 RMK A01 T00701069  RH  036%=      5-min Rain = 0
KBO1 140343Z 31010KT 07/M07 A2997 RMK A01 T00691069  RH  037%=      5-min Rain = 0
KBO1 140344Z 31009KT 07/M07 A2997 RMK A01 T00681069  RH  037%=      5-min Rain = 0
KBO1 140345Z 31009KT 07/M07 A2997 RMK A01 T00671069  RH  037%=      5-min Rain = 0
KBO1 140346Z 31009KT 07/M07 A2997 RMK A01 T00661069  RH  037%=      5-min Rain = 0
KBO1 140347Z 31009KT 06/M07 A2997 RMK A01 T00641069  RH  038%=      5-min Rain = 0
KBO1 140348Z 31009KT 06/M07 A2997 RMK A01 T00621070  RH  038%=      5-min Rain = 0
KBO1 140349Z 32009KT 06/M07 A2997 RMK A01 T00611070  RH  038%=      5-min Rain = 0
KBO1 140350Z 32010KT 06/M07 A2997 RMK A01 T00601070  RH  039%=      5-min Rain = 0
KBO1 140351Z 32010KT 06/M07 A2997 RMK A01 T00581071  RH  039%=      5-min Rain = 0
KBO1 140352Z 32010KT 06/M07 A2997 RMK A01 T00571071  RH  039%=      5-min Rain = 0
KBO1 140353Z 32010KT 06/M07 A2997 RMK A01 T00551071  RH  040%=      5-min Rain = 0
KBO1 140354Z 32010KT 05/M07 A2997 RMK A01 T00531071  RH  040%=      5-min Rain = 0
KBO1 140355Z 32010KT 05/M07 A2997 RMK A01 T00511072  RH  041%=      5-min Rain = 0
KBO1 140356Z 32011KT 05/M07 A2997 RMK A01 T00491071  RH  041%=      5-min Rain = 0
KBO1 140357Z 32010KT 05/M07 A2997 RMK A01 T00481071  RH  042%=      5-min Rain = 0
KBO1 140358Z 33010KT 05/M07 A2997 RMK A01 T00481070  RH  042%=      5-min Rain = 0
KBO1 140359Z 33009KT 05/M07 A2997 RMK A01 T00471070  RH  042%=      5-min Rain = 0
KBO1 140400Z 34009KT 05/M07 A2997 RMK A01 T00461071  RH  042%=      5-min Rain = 0
KBO1 140401Z 34009KT 04/M07 A2997 RMK A01 T00431072  RH  043%=      5-min Rain = 0
KBO1 140402Z 34009KT 04/M07 A2997 RMK A01 T00401073  RH  044%=      5-min Rain = 0
KBO1 140403Z 34009KT 04/M07 A2997 RMK A01 T00381074  RH  044%=      5-min Rain = 0
KBO1 140404Z 34010KT 04/M07 A2997 RMK A01 T00361074  RH  045%=      5-min Rain = 0
KBO1 140405Z 34010KT 04/M07 A2997 RMK A01 T00351074  RH  045%=      5-min Rain = 0
KBO1 140406Z 34010KT 04/M07 A2997 RMK A01 T00351073  RH  045%=      5-min Rain = 0
KBO1 140407Z 34010KT 03/M07 A2997 RMK A01 T00341073  RH  045%=      5-min Rain = 0
KBO1 140408Z 34009KT 03/M07 A2997 RMK A01 T00341073  RH  045%=      5-min Rain = 0
KBO1 140409Z 35008KT 03/M07 A2997 RMK A01 T00341073  RH  045%=      5-min Rain = 0
KBO1 140410Z 35007KT 03/M07 A2997 RMK A01 T00321074  RH  046%=      5-min Rain = 0
KBO1 140411Z 36007KT 03/M08 A2997 RMK A01 T00291075  RH  046%=      5-min Rain = 0
KBO1 140412Z 35009KT 02/M08 A2997 RMK A01 T00241076  RH  047%=      5-min Rain = 0
KBO1 140413Z 35009KT 02/M08 A2997 RMK A01 T00221076  RH  048%=      5-min Rain = 0
KBO1 140414Z 35008KT 02/M08 A2998 RMK A01 T00211076  RH  049%=      5-min Rain = 0
KBO1 140415Z 35007KT 02/M07 A2998 RMK A01 T00211074  RH  049%=      5-min Rain = 0
KBO1 140416Z 35007KT 02/M07 A2998 RMK A01 T00211074  RH  049%=      5-min Rain = 0
KBO1 140417Z 35008KT 02/M07 A2998 RMK A01 T00211074  RH  049%=      5-min Rain = 0
KBO1 140418Z 35007KT 02/M07 A2998 RMK A01 T00211074  RH  049%=      5-min Rain = 0
KBO1 140419Z 35006KT 02/M07 A2998 RMK A01 T00201074  RH  049%=      5-min Rain = 0
KBO1 140420Z 34006KT 02/M07 A2998 RMK A01 T00201074  RH  050%=      5-min Rain = 0
KBO1 140421Z 34006KT 02/M07 A2998 RMK A01 T00201074  RH  050%=      5-min Rain = 0
KBO1 140422Z 34005KT 02/M07 A2998 RMK A01 T00211074  RH  050%=      5-min Rain = 0
KBO1 140423Z 34005KT 02/M07 A2998 RMK A01 T00201074  RH  049%=      5-min Rain = 0
KBO1 140424Z 34005KT 02/M07 A2998 RMK A01 T00201074  RH  050%=      5-min Rain = 0
KBO1 140425Z 33005KT 02/M07 A2998 RMK A01 T00211073  RH  050%=      5-min Rain = 0
KBO1 140426Z 33005KT 02/M07 A2998 RMK A01 T00231073  RH  049%=      5-min Rain = 0
KBO1 140427Z 33006KT 02/M07 A2998 RMK A01 T00241073  RH  049%=      5-min Rain = 0
KBO1 140428Z 33005KT 03/M07 A2998 RMK A01 T00251072  RH  049%=      5-min Rain = 0
KBO1 140429Z 33005KT 03/M07 A2999 RMK A01 T00261072  RH  048%=      5-min Rain = 0
KBO1 140430Z 33006KT 03/M07 A2998 RMK A01 T00271072  RH  048%=      5-min Rain = 0
KBO1 140431Z 32006KT 03/M07 A2998 RMK A01 T00291071  RH  047%=      5-min Rain = 0
KBO1 140432Z 32006KT 03/M07 A2998 RMK A01 T00321071  RH  047%=      5-min Rain = 0
KBO1 140433Z 31006KT 03/M07 A2999 RMK A01 T00341071  RH  046%=      5-min Rain = 0
KBO1 140434Z 31006KT 04/M07 A2999 RMK A01 T00361071  RH  045%=      5-min Rain = 0
KBO1 140435Z 31006KT 04/M07 A2999 RMK A01 T00371070  RH  045%=      5-min Rain = 0
KBO1 140436Z 30006KT 04/M07 A2999 RMK A01 T00371068  RH  046%=      5-min Rain = 0
KBO1 140437Z 30006KT 04/M07 A2999 RMK A01 T00361066  RH  047%=      5-min Rain = 0
KBO1 140438Z 30006KT 04/M07 A2999 RMK A01 T00361065  RH  048%=      5-min Rain = 0
KBO1 140439Z 30006KT 04/M06 A2999 RMK A01 T00361064  RH  048%=      5-min Rain = 0
KBO1 140440Z 30007KT 04/M07 A2999 RMK A01 T00371065  RH  047%=      5-min Rain = 0
KBO1 140441Z 30007KT 04/M07 A2999 RMK A01 T00391065  RH  046%=      5-min Rain = 0
KBO1 140442Z 29007KT 04/M07 A2999 RMK A01 T00411065  RH  046%=      5-min Rain = 0
KBO1 140443Z 29007KT 04/M07 A2999 RMK A01 T00421065  RH  046%=      5-min Rain = 0
KBO1 140444Z 29007KT 04/M07 A2999 RMK A01 T00421065  RH  046%=      5-min Rain = 0
KBO1 140445Z 29006KT 04/M07 A2999 RMK A01 T00401065  RH  046%=      5-min Rain = 0
KBO1 140446Z 29006KT 04/M07 A2999 RMK A01 T00391065  RH  047%=      5-min Rain = 0
KBO1 140447Z 29007KT 04/M07 A2999 RMK A01 T00371066  RH  047%=      5-min Rain = 0
KBO1 140448Z 28007KT 03/M07 A2999 RMK A01 T00341067  RH  048%=      5-min Rain = 0
KBO1 140449Z 28006KT 03/M07 A2999 RMK A01 T00331066  RH  048%=      5-min Rain = 0
KBO1 140450Z 28006KT 03/M07 A2999 RMK A01 T00311066  RH  049%=      5-min Rain = 0
KBO1 140451Z 28006KT 03/M07 A2999 RMK A01 T00301066  RH  049%=      5-min Rain = 0
KBO1 140452Z 28006KT 03/M07 A2999 RMK A01 T00301066  RH  049%=      5-min Rain = 0
KBO1 140453Z 28006KT 03/M07 A2999 RMK A01 T00291066  RH  050%=      5-min Rain = 0
KBO1 140454Z 28006KT 03/M07 A2999 RMK A01 T00281066  RH  050%=      5-min Rain = 0
KBO1 140455Z 28006KT 03/M07 A2999 RMK A01 T00281066  RH  050%=      5-min Rain = 0
KBO1 140456Z 28006KT 03/M07 A2999 RMK A01 T00281066  RH  050%=      5-min Rain = 0
KBO1 140457Z 28006KT 03/M07 A2999 RMK A01 T00291065  RH  050%=      5-min Rain = 0
KBO1 140458Z 29006KT 03/M07 A2999 RMK A01 T00291066  RH  050%=      5-min Rain = 0
KBO1 140459Z 29006KT 03/M07 A2999 RMK A01 T00301066  RH  049%=      5-min Rain = 0
KBO1 140500Z 29007KT 03/M07 A2999 RMK A01 T00311065  RH  049%=      5-min Rain = 0
KBO1 140501Z 29007KT 03/M07 A2999 RMK A01 T00301066  RH  049%=      5-min Rain = 0
KBO1 140502Z 29008KT 03/M07 A2999 RMK A01 T00301066  RH  049%=      5-min Rain = 0
KBO1 140503Z 29008KT 03/M07 A2999 RMK A01 T00311066  RH  049%=      5-min Rain = 0
KBO1 140504Z 29008KT 03/M07 A2999 RMK A01 T00311066  RH  049%=      5-min Rain = 0
KBO1 140505Z 29008KT 03/M07 A2999 RMK A01 T00321065  RH  049%=      5-min Rain = 0
KBO1 140506Z 29008KT 03/M07 A2999 RMK A01 T00321065  RH  049%=      5-min Rain = 0
KBO1 140507Z 29008KT 03/M07 A2999 RMK A01 T00321065  RH  049%=      5-min Rain = 0
KBO1 140508Z 29009KT 03/M06 A2999 RMK A01 T00331064  RH  049%=      5-min Rain = 0
KBO1 140509Z 30009KT 03/M06 A2999 RMK A01 T00341064  RH  049%=      5-min Rain = 0
KBO1 140510Z 30009KT 03/M06 A2999 RMK A01 T00341064  RH  049%=      5-min Rain = 0
KBO1 140511Z 30009KT 04/M06 A2999 RMK A01 T00351064  RH  048%=      5-min Rain = 0
KBO1 140512Z 30008KT 04/M06 A2999 RMK A01 T00361064  RH  048%=      5-min Rain = 0
KBO1 140513Z 30008KT 04/M06 A2999 RMK A01 T00361064  RH  048%=      5-min Rain = 0
KBO1 140514Z 30009KT 04/M06 A2999 RMK A01 T00361064  RH  048%=      5-min Rain = 0
KBO1 140515Z 30009KT 04/M06 A2999 RMK A01 T00371064  RH  048%=      5-min Rain = 0
KBO1 140516Z 31009KT 04/M06 A2999 RMK A01 T00361064  RH  048%=      5-min Rain = 0
KBO1 140517Z 31008KT 04/M07 A2999 RMK A01 T00351065  RH  048%=      5-min Rain = 0
KBO1 140518Z 30008KT 03/M07 A2999 RMK A01 T00331065  RH  048%=      5-min Rain = 0
KBO1 140519Z 30008KT 03/M07 A2999 RMK A01 T00321065  RH  049%=      5-min Rain = 0
KBO1 140520Z 30008KT 03/M07 A2999 RMK A01 T00301066  RH  049%=      5-min Rain = 0
KBO1 140521Z 30009KT 03/M07 A2999 RMK A01 T00291066  RH  050%=      5-min Rain = 0
KBO1 140522Z 30008KT 03/M07 A2999 RMK A01 T00271067  RH  050%=      5-min Rain = 0
KBO1 140523Z 31008KT 03/M07 A2998 RMK A01 T00261067  RH  050%=      5-min Rain = 0
KBO1 140524Z 30007KT 03/M07 A2998 RMK A01 T00261067  RH  051%=      5-min Rain = 0
KBO1 140525Z 31008KT 03/M07 A2998 RMK A01 T00251067  RH  050%=      5-min Rain = 0
KBO1 140526Z 31009KT 03/M07 A2998 RMK A01 T00251067  RH  051%=      5-min Rain = 0
KBO1 140527Z 31008KT 02/M07 A2998 RMK A01 T00241068  RH  051%=      5-min Rain = 0
KBO1 140528Z 32009KT 02/M07 A2999 RMK A01 T00241068  RH  051%=      5-min Rain = 0
KBO1 140529Z 32009KT 02/M07 A2999 RMK A01 T00231068  RH  051%=      5-min Rain = 0
KBO1 140530Z 33009KT 02/M07 A2999 RMK A01 T00231068  RH  051%=      5-min Rain = 0
KBO1 140531Z 33009KT 02/M07 A2998 RMK A01 T00221068  RH  051%=      5-min Rain = 0
KBO1 140532Z 33010KT 02/M07 A2998 RMK A01 T00211068  RH  052%=      5-min Rain = 0
KBO1 140533Z 33011KT 02/M07 A2998 RMK A01 T00211067  RH  052%=      5-min Rain = 0
KBO1 140534Z 33011KT 02/M07 A2998 RMK A01 T00211067  RH  052%=      5-min Rain = 0
KBO1 140535Z 32011KT 02/M07 A2998 RMK A01 T00211067  RH  052%=      5-min Rain = 0
KBO1 140536Z 33011KT 02/M07 A2998 RMK A01 T00211066  RH  052%=      5-min Rain = 0
KBO1 140537Z 33011KT 02/M07 A2998 RMK A01 T00221066  RH  052%=      5-min Rain = 0
KBO1 140538Z 33010KT 02/M07 A2998 RMK A01 T00231065  RH  052%=      5-min Rain = 0
KBO1 140539Z 33009KT 02/M07 A2998 RMK A01 T00241065  RH  052%=      5-min Rain = 0
KBO1 140540Z 33009KT 03/M07 A2998 RMK A01 T00251065  RH  052%=      5-min Rain = 0
KBO1 140541Z 34009KT 03/M06 A2998 RMK A01 T00251064  RH  052%=      5-min Rain = 0
KBO1 140542Z 34010KT 03/M06 A2998 RMK A01 T00251064  RH  052%=      5-min Rain = 0
KBO1 140543Z 34010KT 03/M07 A2998 RMK A01 T00251065  RH  052%=      5-min Rain = 0
KBO1 140544Z 34010KT 03/M06 A2998 RMK A01 T00261064  RH  051%=      5-min Rain = 0
KBO1 140545Z 34010KT 03/M06 A2998 RMK A01 T00271064  RH  051%=      5-min Rain = 0
KBO1 140546Z 34011KT 03/M06 A2998 RMK A01 T00281064  RH  051%=      5-min Rain = 0
KBO1 140547Z 35010KT 03/M06 A2998 RMK A01 T00291064  RH  050%=      5-min Rain = 0
KBO1 140548Z 35010KT 03/M06 A2998 RMK A01 T00291064  RH  050%=      5-min Rain = 0
KBO1 140549Z 34010KT 03/M06 A2998 RMK A01 T00301064  RH  050%=      5-min Rain = 0
KBO1 140550Z 35010KT 03/M06 A2998 RMK A01 T00301064  RH  050%=      5-min Rain = 0
KBO1 140551Z 35010KT 03/M07 A2998 RMK A01 T00301065  RH  050%=      5-min Rain = 0
KBO1 140552Z 35011KT 03/M07 A2998 RMK A01 T00301065  RH  050%=      5-min Rain = 0
KBO1 140553Z 35012KT 03/M07 A2998 RMK A01 T00281066  RH  050%=      5-min Rain = 0
KBO1 140554Z 35012KT 03/M07 A2998 RMK A01 T00281065  RH  050%=      5-min Rain = 0
KBO1 140555Z 00011KT 03/M07 A2998 RMK A01 T00291065  RH  050%=      5-min Rain = 0
KBO1 140556Z 36010KT 03/M06 A2998 RMK A01 T00311064  RH  050%=      5-min Rain = 0
KBO1 140557Z 36011KT 03/M06 A2998 RMK A01 T00311064  RH  049%=      5-min Rain = 0
KBO1 140558Z 00012KT 03/M07 A2998 RMK A01 T00321065  RH  049%=      5-min Rain = 0
KBO1 140559Z 00012KT 03/M06 A2998 RMK A01 T00331064  RH  049%=      5-min Rain = 0

Page generated in 0.1185 seconds.